Observation data for Rotan on 08/12/2019      Previous  Date  Next       Current Mesonet Observations  Soil Data  Daily Summary Page  Observations in Plain Language
KRO1 120500Z 17008KT 28/12 A2994 RMK A01 T02820124  RH  038%=      5-min Rain = 0
KRO1 120501Z 17009KT 28/12 A2994 RMK A01 T02820124  RH  038%=      5-min Rain = 0
KRO1 120502Z 17008KT 28/12 A2994 RMK A01 T02830124  RH  037%=      5-min Rain = 0
KRO1 120503Z 17008KT 28/12 A2994 RMK A01 T02830124  RH  037%=      5-min Rain = 0
KRO1 120504Z 16009KT 28/12 A2994 RMK A01 T02840124  RH  037%=      5-min Rain = 0
KRO1 120505Z 17008KT 28/12 A2994 RMK A01 T02840124  RH  037%=      5-min Rain = 0
KRO1 120506Z 16008KT 28/13 A2994 RMK A01 T02840125  RH  037%=      5-min Rain = 0
KRO1 120507Z 16008KT 28/12 A2994 RMK A01 T02840124  RH  037%=      5-min Rain = 0
KRO1 120508Z 17009KT 28/13 A2994 RMK A01 T02840125  RH  037%=      5-min Rain = 0
KRO1 120509Z 17008KT 28/13 A2994 RMK A01 T02840125  RH  037%=      5-min Rain = 0
KRO1 120510Z 17009KT 28/13 A2994 RMK A01 T02840125  RH  037%=      5-min Rain = 0
KRO1 120511Z 16008KT 29/13 A2994 RMK A01 T02850126  RH  037%=      5-min Rain = 0
KRO1 120512Z 16009KT 29/13 A2994 RMK A01 T02860126  RH  037%=      5-min Rain = 0
KRO1 120513Z 16010KT 29/13 A2994 RMK A01 T02860126  RH  037%=      5-min Rain = 0
KRO1 120514Z 16009KT 29/13 A2994 RMK A01 T02880127  RH  037%=      5-min Rain = 0
KRO1 120515Z 16009KT 29/13 A2994 RMK A01 T02890127  RH  037%=      5-min Rain = 0
KRO1 120516Z 16009KT 29/13 A2994 RMK A01 T02900127  RH  037%=      5-min Rain = 0
KRO1 120517Z 16010KT 29/13 A2994 RMK A01 T02910128  RH  036%=      5-min Rain = 0
KRO1 120518Z 16009KT 29/13 A2994 RMK A01 T02920128  RH  036%=      5-min Rain = 0
KRO1 120519Z 16008KT 29/13 A2994 RMK A01 T02930128  RH  036%=      5-min Rain = 0
KRO1 120520Z 16009KT 29/13 A2995 RMK A01 T02930128  RH  036%=      5-min Rain = 0
KRO1 120521Z 16010KT 29/13 A2995 RMK A01 T02930128  RH  036%=      5-min Rain = 0
KRO1 120522Z 16010KT 29/13 A2995 RMK A01 T02940129  RH  036%=      5-min Rain = 0
KRO1 120523Z 16011KT 29/13 A2995 RMK A01 T02940129  RH  036%=      5-min Rain = 0
KRO1 120524Z 16010KT 30/13 A2994 RMK A01 T02950129  RH  036%=      5-min Rain = 0
KRO1 120525Z 16011KT 30/13 A2995 RMK A01 T02960129  RH  036%=      5-min Rain = 0
KRO1 120526Z 16011KT 30/13 A2994 RMK A01 T02960130  RH  036%=      5-min Rain = 0
KRO1 120527Z 16011KT 30/13 A2994 RMK A01 T02970130  RH  036%=      5-min Rain = 0
KRO1 120528Z 16012KT 30/13 A2994 RMK A01 T02980131  RH  036%=      5-min Rain = 0
KRO1 120529Z 16011KT 30/13 A2994 RMK A01 T02990131  RH  036%=      5-min Rain = 0
KRO1 120530Z 16013KT 30/13 A2994 RMK A01 T02990131  RH  036%=      5-min Rain = 0
KRO1 120531Z 16012KT 30/13 A2994 RMK A01 T03000131  RH  036%=      5-min Rain = 0
KRO1 120532Z 16011KT 30/13 A2994 RMK A01 T03000132  RH  036%=      5-min Rain = 0
KRO1 120533Z 16012KT 30/13 A2994 RMK A01 T03010132  RH  036%=      5-min Rain = 0
KRO1 120534Z 16012KT 30/13 A2994 RMK A01 T03010133  RH  036%=      5-min Rain = 0
KRO1 120535Z 15012KT 30/13 A2994 RMK A01 T03010132  RH  036%=      5-min Rain = 0
KRO1 120536Z 16011KT 30/13 A2994 RMK A01 T03010133  RH  036%=      5-min Rain = 0
KRO1 120537Z 16012KT 30/13 A2994 RMK A01 T03010133  RH  036%=      5-min Rain = 0
KRO1 120538Z 15010KT 30/13 A2994 RMK A01 T03000133  RH  036%=      5-min Rain = 0
KRO1 120539Z 16011KT 30/13 A2994 RMK A01 T02990133  RH  036%=      5-min Rain = 0
KRO1 120540Z 16011KT 30/13 A2994 RMK A01 T02990133  RH  036%=      5-min Rain = 0
KRO1 120541Z 16011KT 30/13 A2994 RMK A01 T02990134  RH  036%=      5-min Rain = 0
KRO1 120542Z 16011KT 30/13 A2994 RMK A01 T02980134  RH  036%=      5-min Rain = 0
KRO1 120543Z 16012KT 30/13 A2994 RMK A01 T02980134  RH  037%=      5-min Rain = 0
KRO1 120544Z 16010KT 30/13 A2994 RMK A01 T02980134  RH  037%=      5-min Rain = 0
KRO1 120545Z 16010KT 30/13 A2994 RMK A01 T02980134  RH  037%=      5-min Rain = 0
KRO1 120546Z 16011KT 30/14 A2994 RMK A01 T02980135  RH  037%=      5-min Rain = 0
KRO1 120547Z 16011KT 30/14 A2994 RMK A01 T02970135  RH  037%=      5-min Rain = 0
KRO1 120548Z 16010KT 30/14 A2994 RMK A01 T02970135  RH  037%=      5-min Rain = 0
KRO1 120549Z 16010KT 30/14 A2994 RMK A01 T02970135  RH  037%=      5-min Rain = 0
KRO1 120550Z 16010KT 30/14 A2994 RMK A01 T02960135  RH  037%=      5-min Rain = 0
KRO1 120551Z 16011KT 30/14 A2994 RMK A01 T02960136  RH  037%=      5-min Rain = 0
KRO1 120552Z 16011KT 30/14 A2994 RMK A01 T02950136  RH  038%=      5-min Rain = 0
KRO1 120553Z 16011KT 30/14 A2994 RMK A01 T02960136  RH  038%=      5-min Rain = 0
KRO1 120554Z 16011KT 30/14 A2994 RMK A01 T02960136  RH  038%=      5-min Rain = 0
KRO1 120555Z 16011KT 30/14 A2994 RMK A01 T02960137  RH  038%=      5-min Rain = 0
KRO1 120556Z 16012KT 30/14 A2994 RMK A01 T02960137  RH  038%=      5-min Rain = 0
KRO1 120557Z 16011KT 30/14 A2994 RMK A01 T02960137  RH  038%=      5-min Rain = 0
KRO1 120558Z 16011KT 30/14 A2994 RMK A01 T02950137  RH  038%=      5-min Rain = 0
KRO1 120559Z 16010KT 30/14 A2994 RMK A01 T02960138  RH  038%=      5-min Rain = 0
KRO1 120600Z 16011KT 30/14 A2994 RMK A01 T02960138  RH  038%=      5-min Rain = 0
KRO1 120601Z 16010KT 30/14 A2994 RMK A01 T02960138  RH  038%=      5-min Rain = 0
KRO1 120602Z 16011KT 30/14 A2994 RMK A01 T02960138  RH  038%=      5-min Rain = 0
KRO1 120603Z 16011KT 30/14 A2994 RMK A01 T02960138  RH  038%=      5-min Rain = 0
KRO1 120604Z 16010KT 30/14 A2994 RMK A01 T02960139  RH  038%=      5-min Rain = 0
KRO1 120605Z 16012KT 30/14 A2994 RMK A01 T02960139  RH  038%=      5-min Rain = 0
KRO1 120606Z 16011KT 30/14 A2994 RMK A01 T02960140  RH  038%=      5-min Rain = 0
KRO1 120607Z 16011KT 30/14 A2994 RMK A01 T02960140  RH  038%=      5-min Rain = 0
KRO1 120608Z 16011KT 30/14 A2994 RMK A01 T02960140  RH  038%=      5-min Rain = 0
KRO1 120609Z 16011KT 30/14 A2994 RMK A01 T02970141  RH  039%=      5-min Rain = 0
KRO1 120610Z 16012KT 30/14 A2994 RMK A01 T02970141  RH  039%=      5-min Rain = 0
KRO1 120611Z 16011KT 30/14 A2994 RMK A01 T02970141  RH  038%=      5-min Rain = 0
KRO1 120612Z 16011KT 30/14 A2993 RMK A01 T02970141  RH  039%=      5-min Rain = 0
KRO1 120613Z 16011KT 30/14 A2993 RMK A01 T02970142  RH  039%=      5-min Rain = 0
KRO1 120614Z 16011KT 30/14 A2993 RMK A01 T02970142  RH  039%=      5-min Rain = 0
KRO1 120615Z 16013KT 30/14 A2993 RMK A01 T02970142  RH  039%=      5-min Rain = 0
KRO1 120616Z 16012KT 30/14 A2993 RMK A01 T02970142  RH  039%=      5-min Rain = 0
KRO1 120617Z 16011KT 30/14 A2993 RMK A01 T02980142  RH  039%=      5-min Rain = 0
KRO1 120618Z 16011KT 30/14 A2993 RMK A01 T02980143  RH  039%=      5-min Rain = 0
KRO1 120619Z 16011KT 30/14 A2993 RMK A01 T02970143  RH  039%=      5-min Rain = 0
KRO1 120620Z 16009KT 30/14 A2993 RMK A01 T02970143  RH  039%=      5-min Rain = 0
KRO1 120621Z 16010KT 30/14 A2993 RMK A01 T02960143  RH  039%=      5-min Rain = 0
KRO1 120622Z 16010KT 30/14 A2993 RMK A01 T02950143  RH  039%=      5-min Rain = 0
KRO1 120623Z 16010KT 30/14 A2993 RMK A01 T02950143  RH  040%=      5-min Rain = 0
KRO1 120624Z 16011KT 30/14 A2993 RMK A01 T02950144  RH  040%=      5-min Rain = 0
KRO1 120625Z 16010KT 30/14 A2993 RMK A01 T02950144  RH  040%=      5-min Rain = 0
KRO1 120626Z 16011KT 29/14 A2993 RMK A01 T02940144  RH  040%=      5-min Rain = 0
KRO1 120627Z 16010KT 30/14 A2993 RMK A01 T02950144  RH  040%=      5-min Rain = 0
KRO1 120628Z 16009KT 30/14 A2993 RMK A01 T02950144  RH  040%=      5-min Rain = 0
KRO1 120629Z 16010KT 29/15 A2993 RMK A01 T02940145  RH  040%=      5-min Rain = 0
KRO1 120630Z 16010KT 29/15 A2993 RMK A01 T02940145  RH  040%=      5-min Rain = 0
KRO1 120631Z 16011KT 29/15 A2994 RMK A01 T02940145  RH  040%=      5-min Rain = 0
KRO1 120632Z 16009KT 29/15 A2994 RMK A01 T02940145  RH  040%=      5-min Rain = 0
KRO1 120633Z 16009KT 29/15 A2994 RMK A01 T02940146  RH  040%=      5-min Rain = 0
KRO1 120634Z 16009KT 29/15 A2994 RMK A01 T02930145  RH  041%=      5-min Rain = 0
KRO1 120635Z 17009KT 29/15 A2994 RMK A01 T02920145  RH  041%=      5-min Rain = 0
KRO1 120636Z 16009KT 29/15 A2994 RMK A01 T02920145  RH  041%=      5-min Rain = 0
KRO1 120637Z 16010KT 29/15 A2994 RMK A01 T02910145  RH  041%=      5-min Rain = 0
KRO1 120638Z 16009KT 29/15 A2994 RMK A01 T02910146  RH  041%=      5-min Rain = 0
KRO1 120639Z 16010KT 29/15 A2994 RMK A01 T02910146  RH  041%=      5-min Rain = 0
KRO1 120640Z 16009KT 29/15 A2994 RMK A01 T02910146  RH  041%=      5-min Rain = 0
KRO1 120641Z 16009KT 29/15 A2994 RMK A01 T02910147  RH  041%=      5-min Rain = 0
KRO1 120642Z 16009KT 29/15 A2994 RMK A01 T02910146  RH  041%=      5-min Rain = 0
KRO1 120643Z 16008KT 29/15 A2994 RMK A01 T02900146  RH  041%=      5-min Rain = 0
KRO1 120644Z 16009KT 29/15 A2994 RMK A01 T02900146  RH  042%=      5-min Rain = 0
KRO1 120645Z 16008KT 29/15 A2994 RMK A01 T02900146  RH  042%=      5-min Rain = 0
KRO1 120646Z 16010KT 29/15 A2994 RMK A01 T02890147  RH  042%=      5-min Rain = 0
KRO1 120647Z 16009KT 29/15 A2994 RMK A01 T02890147  RH  042%=      5-min Rain = 0
KRO1 120648Z 16010KT 29/15 A2994 RMK A01 T02890147  RH  042%=      5-min Rain = 0
KRO1 120649Z 17010KT 29/15 A2994 RMK A01 T02890147  RH  042%=      5-min Rain = 0
KRO1 120650Z 17009KT 29/15 A2994 RMK A01 T02890147  RH  042%=      5-min Rain = 0
KRO1 120651Z 17009KT 29/15 A2994 RMK A01 T02890147  RH  042%=      5-min Rain = 0
KRO1 120652Z 16009KT 29/15 A2994 RMK A01 T02890147  RH  042%=      5-min Rain = 0
KRO1 120653Z 17009KT 29/15 A2994 RMK A01 T02880147  RH  042%=      5-min Rain = 0
KRO1 120654Z 17009KT 29/15 A2994 RMK A01 T02880147  RH  042%=      5-min Rain = 0
KRO1 120655Z 17009KT 29/15 A2994 RMK A01 T02880147  RH  042%=      5-min Rain = 0
KRO1 120656Z 17009KT 29/15 A2994 RMK A01 T02880147  RH  042%=      5-min Rain = 0
KRO1 120657Z 17009KT 29/15 A2994 RMK A01 T02880147  RH  042%=      5-min Rain = 0
KRO1 120658Z 17009KT 29/15 A2994 RMK A01 T02880148  RH  042%=      5-min Rain = 0
KRO1 120659Z 17009KT 29/15 A2994 RMK A01 T02870147  RH  042%=      5-min Rain = 0
KRO1 120700Z 16008KT 29/15 A2994 RMK A01 T02870148  RH  043%=      5-min Rain = 0
KRO1 120701Z 16008KT 29/15 A2994 RMK A01 T02860147  RH  043%=      5-min Rain = 0
KRO1 120702Z 16009KT 29/15 A2994 RMK A01 T02860147  RH  043%=      5-min Rain = 0
KRO1 120703Z 16008KT 29/15 A2994 RMK A01 T02850147  RH  043%=      5-min Rain = 0
KRO1 120704Z 16008KT 29/15 A2994 RMK A01 T02850147  RH  043%=      5-min Rain = 0
KRO1 120705Z 16008KT 29/15 A2994 RMK A01 T02850147  RH  043%=      5-min Rain = 0
KRO1 120706Z 16008KT 28/15 A2994 RMK A01 T02840147  RH  043%=      5-min Rain = 0
KRO1 120707Z 16008KT 28/15 A2994 RMK A01 T02840147  RH  043%=      5-min Rain = 0
KRO1 120708Z 16008KT 28/15 A2994 RMK A01 T02840148  RH  043%=      5-min Rain = 0
KRO1 120709Z 16007KT 28/15 A2994 RMK A01 T02830147  RH  044%=      5-min Rain = 0
KRO1 120710Z 16007KT 28/15 A2994 RMK A01 T02830147  RH  044%=      5-min Rain = 0
KRO1 120711Z 16007KT 28/15 A2994 RMK A01 T02820148  RH  044%=      5-min Rain = 0
KRO1 120712Z 16007KT 28/15 A2994 RMK A01 T02820147  RH  044%=      5-min Rain = 0
KRO1 120713Z 16007KT 28/15 A2994 RMK A01 T02820147  RH  044%=      5-min Rain = 0
KRO1 120714Z 16006KT 28/15 A2994 RMK A01 T02820148  RH  044%=      5-min Rain = 0
KRO1 120715Z 16006KT 28/15 A2994 RMK A01 T02810147  RH  044%=      5-min Rain = 0
KRO1 120716Z 16006KT 28/15 A2994 RMK A01 T02810147  RH  044%=      5-min Rain = 0
KRO1 120717Z 15007KT 28/15 A2994 RMK A01 T02800147  RH  044%=      5-min Rain = 0
KRO1 120718Z 15007KT 28/15 A2994 RMK A01 T02790147  RH  044%=      5-min Rain = 0
KRO1 120719Z 15007KT 28/15 A2994 RMK A01 T02780147  RH  045%=      5-min Rain = 0
KRO1 120720Z 15007KT 28/15 A2994 RMK A01 T02770147  RH  045%=      5-min Rain = 0
KRO1 120721Z 15007KT 28/15 A2994 RMK A01 T02770147  RH  045%=      5-min Rain = 0
KRO1 120722Z 15007KT 28/15 A2994 RMK A01 T02760147  RH  045%=      5-min Rain = 0
KRO1 120723Z 15007KT 28/15 A2994 RMK A01 T02750147  RH  045%=      5-min Rain = 0
KRO1 120724Z 15007KT 27/15 A2994 RMK A01 T02740147  RH  046%=      5-min Rain = 0
KRO1 120725Z 15007KT 27/15 A2994 RMK A01 T02740147  RH  046%=      5-min Rain = 0
KRO1 120726Z 15007KT 27/15 A2994 RMK A01 T02730147  RH  046%=      5-min Rain = 0
KRO1 120727Z 15007KT 27/15 A2994 RMK A01 T02730147  RH  046%=      5-min Rain = 0
KRO1 120728Z 15007KT 27/15 A2994 RMK A01 T02730147  RH  046%=      5-min Rain = 0
KRO1 120729Z 15008KT 27/15 A2994 RMK A01 T02720147  RH  046%=      5-min Rain = 0
KRO1 120730Z 15008KT 27/15 A2994 RMK A01 T02720147  RH  046%=      5-min Rain = 0
KRO1 120731Z 16007KT 27/15 A2994 RMK A01 T02720147  RH  046%=      5-min Rain = 0
KRO1 120732Z 16008KT 27/15 A2994 RMK A01 T02720147  RH  047%=      5-min Rain = 0
KRO1 120733Z 16008KT 27/15 A2994 RMK A01 T02720148  RH  046%=      5-min Rain = 0
KRO1 120734Z 16007KT 27/15 A2994 RMK A01 T02720147  RH  047%=      5-min Rain = 0
KRO1 120735Z 16007KT 27/15 A2994 RMK A01 T02710147  RH  047%=      5-min Rain = 0
KRO1 120736Z 16007KT 27/15 A2994 RMK A01 T02710147  RH  047%=      5-min Rain = 0
KRO1 120737Z 16007KT 27/15 A2994 RMK A01 T02710147  RH  046%=      5-min Rain = 0
KRO1 120738Z 16007KT 27/15 A2994 RMK A01 T02720147  RH  046%=      5-min Rain = 0
KRO1 120739Z 16007KT 27/15 A2994 RMK A01 T02720147  RH  046%=      5-min Rain = 0
KRO1 120740Z 16006KT 27/15 A2994 RMK A01 T02720147  RH  046%=      5-min Rain = 0
KRO1 120741Z 16007KT 27/15 A2994 RMK A01 T02720147  RH  046%=      5-min Rain = 0
KRO1 120742Z 16007KT 27/15 A2994 RMK A01 T02720147  RH  046%=      5-min Rain = 0
KRO1 120743Z 17007KT 27/15 A2994 RMK A01 T02730147  RH  046%=      5-min Rain = 0
KRO1 120744Z 17007KT 27/15 A2994 RMK A01 T02730147  RH  046%=      5-min Rain = 0
KRO1 120745Z 17007KT 27/15 A2994 RMK A01 T02730147  RH  046%=      5-min Rain = 0
KRO1 120746Z 17007KT 27/15 A2994 RMK A01 T02730147  RH  046%=      5-min Rain = 0
KRO1 120747Z 17008KT 27/15 A2994 RMK A01 T02720147  RH  046%=      5-min Rain = 0
KRO1 120748Z 17008KT 27/15 A2994 RMK A01 T02730147  RH  046%=      5-min Rain = 0
KRO1 120749Z 16007KT 27/15 A2994 RMK A01 T02720147  RH  046%=      5-min Rain = 0
KRO1 120750Z 16007KT 27/15 A2994 RMK A01 T02720147  RH  046%=      5-min Rain = 0
KRO1 120751Z 17008KT 27/15 A2994 RMK A01 T02720147  RH  046%=      5-min Rain = 0
KRO1 120752Z 16008KT 27/15 A2994 RMK A01 T02720147  RH  046%=      5-min Rain = 0
KRO1 120753Z 17008KT 27/15 A2994 RMK A01 T02720147  RH  046%=      5-min Rain = 0
KRO1 120754Z 17008KT 27/15 A2994 RMK A01 T02720147  RH  046%=      5-min Rain = 0
KRO1 120755Z 17008KT 27/15 A2994 RMK A01 T02720147  RH  046%=      5-min Rain = 0
KRO1 120756Z 17008KT 27/15 A2994 RMK A01 T02720147  RH  046%=      5-min Rain = 0
KRO1 120757Z 17008KT 27/15 A2994 RMK A01 T02720147  RH  046%=      5-min Rain = 0
KRO1 120758Z 17008KT 27/15 A2994 RMK A01 T02720147  RH  046%=      5-min Rain = 0
KRO1 120759Z 17008KT 27/15 A2994 RMK A01 T02720147  RH  046%=      5-min Rain = 0
KRO1 120800Z 17008KT 27/15 A2994 RMK A01 T02720147  RH  046%=      5-min Rain = 0
KRO1 120801Z 17008KT 27/15 A2994 RMK A01 T02710147  RH  047%=      5-min Rain = 0
KRO1 120802Z 17008KT 27/15 A2994 RMK A01 T02710148  RH  047%=      5-min Rain = 0
KRO1 120803Z 17008KT 27/15 A2994 RMK A01 T02710148  RH  047%=      5-min Rain = 0
KRO1 120804Z 17008KT 27/15 A2994 RMK A01 T02710148  RH  047%=      5-min Rain = 0
KRO1 120805Z 17008KT 27/15 A2994 RMK A01 T02700147  RH  047%=      5-min Rain = 0
KRO1 120806Z 17008KT 27/15 A2994 RMK A01 T02700148  RH  047%=      5-min Rain = 0
KRO1 120807Z 18008KT 27/15 A2994 RMK A01 T02690148  RH  047%=      5-min Rain = 0
KRO1 120808Z 18007KT 27/15 A2994 RMK A01 T02700148  RH  047%=      5-min Rain = 0
KRO1 120809Z 18008KT 27/15 A2994 RMK A01 T02690148  RH  047%=      5-min Rain = 0
KRO1 120810Z 18008KT 27/15 A2994 RMK A01 T02690148  RH  047%=      5-min Rain = 0
KRO1 120811Z 18008KT 27/15 A2994 RMK A01 T02690148  RH  048%=      5-min Rain = 0
KRO1 120812Z 18008KT 27/15 A2994 RMK A01 T02680148  RH  048%=      5-min Rain = 0
KRO1 120813Z 18008KT 27/15 A2994 RMK A01 T02680148  RH  048%=      5-min Rain = 0
KRO1 120814Z 17009KT 27/15 A2994 RMK A01 T02680148  RH  048%=      5-min Rain = 0
KRO1 120815Z 17009KT 27/15 A2994 RMK A01 T02680148  RH  048%=      5-min Rain = 0
KRO1 120816Z 17009KT 27/15 A2994 RMK A01 T02680149  RH  048%=      5-min Rain = 0
KRO1 120817Z 17008KT 27/15 A2994 RMK A01 T02680148  RH  048%=      5-min Rain = 0
KRO1 120818Z 17009KT 27/15 A2994 RMK A01 T02680148  RH  048%=      5-min Rain = 0
KRO1 120819Z 17009KT 27/15 A2994 RMK A01 T02680148  RH  048%=      5-min Rain = 0
KRO1 120820Z 18009KT 27/15 A2993 RMK A01 T02690148  RH  048%=      5-min Rain = 0
KRO1 120821Z 18009KT 27/15 A2993 RMK A01 T02690148  RH  048%=      5-min Rain = 0
KRO1 120822Z 18009KT 27/15 A2993 RMK A01 T02690148  RH  048%=      5-min Rain = 0
KRO1 120823Z 18009KT 27/15 A2993 RMK A01 T02690148  RH  047%=      5-min Rain = 0
KRO1 120824Z 18010KT 27/15 A2993 RMK A01 T02700148  RH  047%=      5-min Rain = 0
KRO1 120825Z 18010KT 27/15 A2993 RMK A01 T02700148  RH  047%=      5-min Rain = 0
KRO1 120826Z 18010KT 27/15 A2993 RMK A01 T02710148  RH  047%=      5-min Rain = 0
KRO1 120827Z 18010KT 27/15 A2993 RMK A01 T02720148  RH  047%=      5-min Rain = 0
KRO1 120828Z 18010KT 27/15 A2993 RMK A01 T02720149  RH  047%=      5-min Rain = 0
KRO1 120829Z 18009KT 27/15 A2993 RMK A01 T02720149  RH  047%=      5-min Rain = 0
KRO1 120830Z 18010KT 27/15 A2993 RMK A01 T02720149  RH  047%=      5-min Rain = 0
KRO1 120831Z 18010KT 27/15 A2993 RMK A01 T02730149  RH  047%=      5-min Rain = 0
KRO1 120832Z 19009KT 27/15 A2993 RMK A01 T02740150  RH  047%=      5-min Rain = 0
KRO1 120833Z 19010KT 27/15 A2993 RMK A01 T02740150  RH  047%=      5-min Rain = 0
KRO1 120834Z 19010KT 28/15 A2993 RMK A01 T02750150  RH  046%=      5-min Rain = 0
KRO1 120835Z 19010KT 28/15 A2993 RMK A01 T02760150  RH  046%=      5-min Rain = 0
KRO1 120836Z 19010KT 28/15 A2993 RMK A01 T02760150  RH  046%=      5-min Rain = 0
KRO1 120837Z 20010KT 28/15 A2993 RMK A01 T02760150  RH  046%=      5-min Rain = 0
KRO1 120838Z 20010KT 28/15 A2993 RMK A01 T02760151  RH  046%=      5-min Rain = 0
KRO1 120839Z 20010KT 28/15 A2993 RMK A01 T02760150  RH  046%=      5-min Rain = 0
KRO1 120840Z 20010KT 28/15 A2993 RMK A01 T02760151  RH  046%=      5-min Rain = 0
KRO1 120841Z 20010KT 28/15 A2993 RMK A01 T02760151  RH  046%=      5-min Rain = 0
KRO1 120842Z 20010KT 28/15 A2993 RMK A01 T02760151  RH  046%=      5-min Rain = 0
KRO1 120843Z 20010KT 28/15 A2993 RMK A01 T02760151  RH  046%=      5-min Rain = 0
KRO1 120844Z 20009KT 28/15 A2993 RMK A01 T02760151  RH  046%=      5-min Rain = 0
KRO1 120845Z 20009KT 28/15 A2993 RMK A01 T02760151  RH  046%=      5-min Rain = 0
KRO1 120846Z 20010KT 28/15 A2993 RMK A01 T02770152  RH  046%=      5-min Rain = 0
KRO1 120847Z 20010KT 28/15 A2993 RMK A01 T02760152  RH  047%=      5-min Rain = 0
KRO1 120848Z 20010KT 28/15 A2993 RMK A01 T02770152  RH  047%=      5-min Rain = 0
KRO1 120849Z 20010KT 28/15 A2993 RMK A01 T02770153  RH  047%=      5-min Rain = 0
KRO1 120850Z 20011KT 28/15 A2993 RMK A01 T02770153  RH  047%=      5-min Rain = 0
KRO1 120851Z 20011KT 28/15 A2993 RMK A01 T02770154  RH  047%=      5-min Rain = 0
KRO1 120852Z 20011KT 28/15 A2993 RMK A01 T02780154  RH  047%=      5-min Rain = 0
KRO1 120853Z 20011KT 28/16 A2993 RMK A01 T02790155  RH  047%=      5-min Rain = 0
KRO1 120854Z 20012KT 28/16 A2993 RMK A01 T02790155  RH  047%=      5-min Rain = 0
KRO1 120855Z 20012KT 28/16 A2993 RMK A01 T02800156  RH  047%=      5-min Rain = 0
KRO1 120856Z 20010KT 28/16 A2993 RMK A01 T02810156  RH  047%=      5-min Rain = 0
KRO1 120857Z 20010KT 28/16 A2993 RMK A01 T02810157  RH  047%=      5-min Rain = 0
KRO1 120858Z 20010KT 28/16 A2993 RMK A01 T02800157  RH  047%=      5-min Rain = 0
KRO1 120859Z 20011KT 28/16 A2993 RMK A01 T02800157  RH  047%=      5-min Rain = 0
KRO1 120900Z 20010KT 28/16 A2993 RMK A01 T02810158  RH  047%=      5-min Rain = 0
KRO1 120901Z 20012KT 28/16 A2993 RMK A01 T02810158  RH  047%=      5-min Rain = 0
KRO1 120902Z 20012KT 28/16 A2993 RMK A01 T02820158  RH  047%=      5-min Rain = 0
KRO1 120903Z 20012KT 28/16 A2993 RMK A01 T02820159  RH  047%=      5-min Rain = 0
KRO1 120904Z 20011KT 28/16 A2993 RMK A01 T02830159  RH  047%=      5-min Rain = 0
KRO1 120905Z 20011KT 28/16 A2993 RMK A01 T02830159  RH  047%=      5-min Rain = 0
KRO1 120906Z 20012KT 28/16 A2993 RMK A01 T02830159  RH  047%=      5-min Rain = 0
KRO1 120907Z 20012KT 28/16 A2993 RMK A01 T02830160  RH  047%=      5-min Rain = 0
KRO1 120908Z 20011KT 28/16 A2993 RMK A01 T02840160  RH  047%=      5-min Rain = 0
KRO1 120909Z 20013KT 28/16 A2993 RMK A01 T02840160  RH  047%=      5-min Rain = 0
KRO1 120910Z 20012KT 28/16 A2993 RMK A01 T02840160  RH  047%=      5-min Rain = 0
KRO1 120911Z 20012KT 28/16 A2993 RMK A01 T02840160  RH  047%=      5-min Rain = 0
KRO1 120912Z 20013KT 29/16 A2993 RMK A01 T02850160  RH  047%=      5-min Rain = 0
KRO1 120913Z 20013KT 28/16 A2993 RMK A01 T02840160  RH  047%=      5-min Rain = 0
KRO1 120914Z 20012KT 29/16 A2993 RMK A01 T02850160  RH  047%=      5-min Rain = 0
KRO1 120915Z 20011KT 29/16 A2993 RMK A01 T02850161  RH  047%=      5-min Rain = 0
KRO1 120916Z 19013KT 29/16 A2993 RMK A01 T02850161  RH  047%=      5-min Rain = 0
KRO1 120917Z 19011KT 29/16 A2993 RMK A01 T02850161  RH  047%=      5-min Rain = 0
KRO1 120918Z 19012KT 29/16 A2993 RMK A01 T02850161  RH  047%=      5-min Rain = 0
KRO1 120919Z 19012KT 29/16 A2993 RMK A01 T02850161  RH  047%=      5-min Rain = 0
KRO1 120920Z 19011KT 29/16 A2993 RMK A01 T02850161  RH  047%=      5-min Rain = 0
KRO1 120921Z 19011KT 28/16 A2993 RMK A01 T02840161  RH  047%=      5-min Rain = 0
KRO1 120922Z 19013KT 28/16 A2993 RMK A01 T02840161  RH  047%=      5-min Rain = 0
KRO1 120923Z 19012KT 28/16 A2993 RMK A01 T02840161  RH  047%=      5-min Rain = 0
KRO1 120924Z 19011KT 29/16 A2993 RMK A01 T02850161  RH  047%=      5-min Rain = 0
KRO1 120925Z 19012KT 28/16 A2993 RMK A01 T02840161  RH  047%=      5-min Rain = 0
KRO1 120926Z 19012KT 28/16 A2993 RMK A01 T02840161  RH  047%=      5-min Rain = 0
KRO1 120927Z 19012KT 28/16 A2993 RMK A01 T02840162  RH  047%=      5-min Rain = 0
KRO1 120928Z 19012KT 28/16 A2993 RMK A01 T02840162  RH  048%=      5-min Rain = 0
KRO1 120929Z 19012KT 28/16 A2993 RMK A01 T02840162  RH  048%=      5-min Rain = 0
KRO1 120930Z 18012KT 28/16 A2993 RMK A01 T02840162  RH  048%=      5-min Rain = 0
KRO1 120931Z 18012KT 28/16 A2993 RMK A01 T02840162  RH  048%=      5-min Rain = 0
KRO1 120932Z 18013KT 28/16 A2993 RMK A01 T02840162  RH  048%=      5-min Rain = 0
KRO1 120933Z 18013KT 28/16 A2993 RMK A01 T02840162  RH  048%=      5-min Rain = 0
KRO1 120934Z 18011KT 28/16 A2993 RMK A01 T02840162  RH  048%=      5-min Rain = 0
KRO1 120935Z 18013KT 28/16 A2993 RMK A01 T02840162  RH  048%=      5-min Rain = 0
KRO1 120936Z 18014KT 28/16 A2993 RMK A01 T02840163  RH  048%=      5-min Rain = 0
KRO1 120937Z 18012KT 28/16 A2993 RMK A01 T02840162  RH  048%=      5-min Rain = 0
KRO1 120938Z 18013KT 28/16 A2993 RMK A01 T02840162  RH  048%=      5-min Rain = 0
KRO1 120939Z 18013KT 28/16 A2993 RMK A01 T02840163  RH  048%=      5-min Rain = 0
KRO1 120940Z 18014KT 28/16 A2993 RMK A01 T02840163  RH  048%=      5-min Rain = 0
KRO1 120941Z 18013KT 28/16 A2993 RMK A01 T02840163  RH  048%=      5-min Rain = 0
KRO1 120942Z 18012KT 28/16 A2993 RMK A01 T02840163  RH  048%=      5-min Rain = 0
KRO1 120943Z 18011KT 28/16 A2993 RMK A01 T02830163  RH  048%=      5-min Rain = 0
KRO1 120944Z 18011KT 28/16 A2993 RMK A01 T02830163  RH  048%=      5-min Rain = 0
KRO1 120945Z 18012KT 28/16 A2993 RMK A01 T02820163  RH  048%=      5-min Rain = 0
KRO1 120946Z 18012KT 28/16 A2993 RMK A01 T02820164  RH  048%=      5-min Rain = 0
KRO1 120947Z 18012KT 28/16 A2993 RMK A01 T02820164  RH  048%=      5-min Rain = 0
KRO1 120948Z 18012KT 28/16 A2993 RMK A01 T02820164  RH  048%=      5-min Rain = 0
KRO1 120949Z 18014KT 28/16 A2993 RMK A01 T02820164  RH  049%=      5-min Rain = 0
KRO1 120950Z 18015KT 28/16 A2993 RMK A01 T02820164  RH  049%=      5-min Rain = 0
KRO1 120951Z 18012KT 28/17 A2993 RMK A01 T02830165  RH  049%=      5-min Rain = 0
KRO1 120952Z 18013KT 28/16 A2993 RMK A01 T02830164  RH  049%=      5-min Rain = 0
KRO1 120953Z 18013KT 28/16 A2993 RMK A01 T02830164  RH  049%=      5-min Rain = 0
KRO1 120954Z 18013KT 28/17 A2993 RMK A01 T02830165  RH  049%=      5-min Rain = 0
KRO1 120955Z 18012KT 28/17 A2993 RMK A01 T02830165  RH  049%=      5-min Rain = 0
KRO1 120956Z 18013KT 28/17 A2993 RMK A01 T02830165  RH  049%=      5-min Rain = 0
KRO1 120957Z 18012KT 28/17 A2993 RMK A01 T02820165  RH  049%=      5-min Rain = 0
KRO1 120958Z 18012KT 28/17 A2993 RMK A01 T02820165  RH  049%=      5-min Rain = 0
KRO1 120959Z 18011KT 28/17 A2993 RMK A01 T02820166  RH  049%=      5-min Rain = 0
KRO1 121000Z 18013KT 28/17 A2993 RMK A01 T02820166  RH  049%=      5-min Rain = 0
KRO1 121001Z 18012KT 28/17 A2993 RMK A01 T02820166  RH  049%=      5-min Rain = 0
KRO1 121002Z 18012KT 28/17 A2993 RMK A01 T02810166  RH  050%=      5-min Rain = 0
KRO1 121003Z 18012KT 28/17 A2993 RMK A01 T02820166  RH  050%=      5-min Rain = 0
KRO1 121004Z 18013KT 28/17 A2993 RMK A01 T02820167  RH  050%=      5-min Rain = 0
KRO1 121005Z 18011KT 28/17 A2993 RMK A01 T02820167  RH  050%=      5-min Rain = 0
KRO1 121006Z 19011KT 28/17 A2993 RMK A01 T02820167  RH  050%=      5-min Rain = 0
KRO1 121007Z 18011KT 28/17 A2993 RMK A01 T02810167  RH  050%=      5-min Rain = 0
KRO1 121008Z 18011KT 28/17 A2993 RMK A01 T02810167  RH  050%=      5-min Rain = 0
KRO1 121009Z 18010KT 28/17 A2993 RMK A01 T02810167  RH  050%=      5-min Rain = 0
KRO1 121010Z 18011KT 28/17 A2993 RMK A01 T02810168  RH  050%=      5-min Rain = 0
KRO1 121011Z 18010KT 28/17 A2993 RMK A01 T02810168  RH  050%=      5-min Rain = 0
KRO1 121012Z 18010KT 28/17 A2993 RMK A01 T02810168  RH  050%=      5-min Rain = 0
KRO1 121013Z 18011KT 28/17 A2993 RMK A01 T02800168  RH  051%=      5-min Rain = 0
KRO1 121014Z 18010KT 28/17 A2993 RMK A01 T02800168  RH  051%=      5-min Rain = 0
KRO1 121015Z 18010KT 28/17 A2993 RMK A01 T02800168  RH  051%=      5-min Rain = 0
KRO1 121016Z 18009KT 28/17 A2993 RMK A01 T02800169  RH  051%=      5-min Rain = 0
KRO1 121017Z 18010KT 28/17 A2993 RMK A01 T02790169  RH  051%=      5-min Rain = 0
KRO1 121018Z 18011KT 28/17 A2993 RMK A01 T02790169  RH  051%=      5-min Rain = 0
KRO1 121019Z 18010KT 28/17 A2993 RMK A01 T02790169  RH  051%=      5-min Rain = 0
KRO1 121020Z 18010KT 28/17 A2993 RMK A01 T02790169  RH  051%=      5-min Rain = 0
KRO1 121021Z 18010KT 28/17 A2993 RMK A01 T02790169  RH  051%=      5-min Rain = 0
KRO1 121022Z 18010KT 28/17 A2993 RMK A01 T02790170  RH  051%=      5-min Rain = 0
KRO1 121023Z 18009KT 28/17 A2993 RMK A01 T02790169  RH  051%=      5-min Rain = 0
KRO1 121024Z 18010KT 28/17 A2993 RMK A01 T02780169  RH  051%=      5-min Rain = 0
KRO1 121025Z 18010KT 28/17 A2993 RMK A01 T02780169  RH  052%=      5-min Rain = 0
KRO1 121026Z 18009KT 28/17 A2993 RMK A01 T02780170  RH  052%=      5-min Rain = 0
KRO1 121027Z 18009KT 28/17 A2993 RMK A01 T02770170  RH  052%=      5-min Rain = 0
KRO1 121028Z 18010KT 28/17 A2993 RMK A01 T02770170  RH  052%=      5-min Rain = 0
KRO1 121029Z 18010KT 28/17 A2993 RMK A01 T02770170  RH  052%=      5-min Rain = 0
KRO1 121030Z 19010KT 28/17 A2993 RMK A01 T02770170  RH  052%=      5-min Rain = 0
KRO1 121031Z 18010KT 28/17 A2993 RMK A01 T02760170  RH  052%=      5-min Rain = 0
KRO1 121032Z 18009KT 28/17 A2993 RMK A01 T02760170  RH  052%=      5-min Rain = 0
KRO1 121033Z 19011KT 28/17 A2993 RMK A01 T02760171  RH  052%=      5-min Rain = 0
KRO1 121034Z 19010KT 28/17 A2993 RMK A01 T02760171  RH  053%=      5-min Rain = 0
KRO1 121035Z 18009KT 28/17 A2993 RMK A01 T02760170  RH  053%=      5-min Rain = 0
KRO1 121036Z 19010KT 28/17 A2993 RMK A01 T02760171  RH  053%=      5-min Rain = 0
KRO1 121037Z 19011KT 28/17 A2993 RMK A01 T02750171  RH  053%=      5-min Rain = 0
KRO1 121038Z 18010KT 28/17 A2993 RMK A01 T02750171  RH  053%=      5-min Rain = 0
KRO1 121039Z 19009KT 28/17 A2993 RMK A01 T02750171  RH  053%=      5-min Rain = 0
KRO1 121040Z 19009KT 28/17 A2993 RMK A01 T02750171  RH  053%=      5-min Rain = 0
KRO1 121041Z 19010KT 28/17 A2993 RMK A01 T02750172  RH  053%=      5-min Rain = 0
KRO1 121042Z 19010KT 28/17 A2993 RMK A01 T02750172  RH  053%=      5-min Rain = 0
KRO1 121043Z 20010KT 28/17 A2993 RMK A01 T02750172  RH  053%=      5-min Rain = 0
KRO1 121044Z 20009KT 28/17 A2993 RMK A01 T02750172  RH  053%=      5-min Rain = 0
KRO1 121045Z 20010KT 28/17 A2993 RMK A01 T02750172  RH  053%=      5-min Rain = 0
KRO1 121046Z 20010KT 28/17 A2993 RMK A01 T02750172  RH  053%=      5-min Rain = 0
KRO1 121047Z 19010KT 28/17 A2993 RMK A01 T02750172  RH  054%=      5-min Rain = 0
KRO1 121048Z 19010KT 28/17 A2993 RMK A01 T02750172  RH  054%=      5-min Rain = 0
KRO1 121049Z 19010KT 28/17 A2993 RMK A01 T02750173  RH  054%=      5-min Rain = 0
KRO1 121050Z 19010KT 28/17 A2993 RMK A01 T02750173  RH  054%=      5-min Rain = 0
KRO1 121051Z 19010KT 28/17 A2993 RMK A01 T02750172  RH  054%=      5-min Rain = 0
KRO1 121052Z 19011KT 27/17 A2993 RMK A01 T02740173  RH  054%=      5-min Rain = 0
KRO1 121053Z 19011KT 27/17 A2993 RMK A01 T02740173  RH  054%=      5-min Rain = 0
KRO1 121054Z 20010KT 27/17 A2993 RMK A01 T02740173  RH  054%=      5-min Rain = 0
KRO1 121055Z 20011KT 27/17 A2993 RMK A01 T02740173  RH  054%=      5-min Rain = 0
KRO1 121056Z 20010KT 27/17 A2993 RMK A01 T02740173  RH  054%=      5-min Rain = 0
KRO1 121057Z 20011KT 27/17 A2993 RMK A01 T02740173  RH  054%=      5-min Rain = 0
KRO1 121058Z 20010KT 27/17 A2993 RMK A01 T02740173  RH  054%=      5-min Rain = 0
KRO1 121059Z 19010KT 27/17 A2993 RMK A01 T02740174  RH  054%=      5-min Rain = 0
KRO1 121100Z 19011KT 27/17 A2993 RMK A01 T02740174  RH  054%=      5-min Rain = 0
KRO1 121101Z 19011KT 27/17 A2993 RMK A01 T02740174  RH  054%=      5-min Rain = 0
KRO1 121102Z 19010KT 27/17 A2993 RMK A01 T02740174  RH  054%=      5-min Rain = 0
KRO1 121103Z 19012KT 27/18 A2993 RMK A01 T02740175  RH  055%=      5-min Rain = 0
KRO1 121104Z 19011KT 27/18 A2993 RMK A01 T02740175  RH  055%=      5-min Rain = 0
KRO1 121105Z 19010KT 27/18 A2993 RMK A01 T02740175  RH  055%=      5-min Rain = 0
KRO1 121106Z 19010KT 27/18 A2993 RMK A01 T02740175  RH  055%=      5-min Rain = 0
KRO1 121107Z 20011KT 27/18 A2993 RMK A01 T02740175  RH  055%=      5-min Rain = 0
KRO1 121108Z 19012KT 27/18 A2993 RMK A01 T02740175  RH  055%=      5-min Rain = 0
KRO1 121109Z 20010KT 27/18 A2993 RMK A01 T02740176  RH  055%=      5-min Rain = 0
KRO1 121110Z 20010KT 27/18 A2993 RMK A01 T02740176  RH  055%=      5-min Rain = 0
KRO1 121111Z 19011KT 27/18 A2993 RMK A01 T02740176  RH  055%=      5-min Rain = 0
KRO1 121112Z 20010KT 27/18 A2993 RMK A01 T02740176  RH  055%=      5-min Rain = 0
KRO1 121113Z 20012KT 27/18 A2993 RMK A01 T02740177  RH  056%=      5-min Rain = 0
KRO1 121114Z 20011KT 27/18 A2992 RMK A01 T02730177  RH  056%=      5-min Rain = 0
KRO1 121115Z 19011KT 27/18 A2993 RMK A01 T02740178  RH  056%=      5-min Rain = 0
KRO1 121116Z 20013KT 27/18 A2992 RMK A01 T02740178  RH  056%=      5-min Rain = 0
KRO1 121117Z 20013KT 27/18 A2992 RMK A01 T02740179  RH  056%=      5-min Rain = 0
KRO1 121118Z 20011KT 28/18 A2993 RMK A01 T02750179  RH  056%=      5-min Rain = 0
KRO1 121119Z 20013KT 28/18 A2993 RMK A01 T02760180  RH  056%=      5-min Rain = 0
KRO1 121120Z 20013KT 28/18 A2993 RMK A01 T02760180  RH  056%=      5-min Rain = 0
KRO1 121121Z 20013KT 28/18 A2993 RMK A01 T02760180  RH  056%=      5-min Rain = 0
KRO1 121122Z 20010KT 28/18 A2993 RMK A01 T02760181  RH  056%=      5-min Rain = 0
KRO1 121123Z 20010KT 28/18 A2993 RMK A01 T02760181  RH  056%=      5-min Rain = 0
KRO1 121124Z 20012KT 28/18 A2993 RMK A01 T02760181  RH  056%=      5-min Rain = 0
KRO1 121125Z 20011KT 28/18 A2993 RMK A01 T02760181  RH  056%=      5-min Rain = 0
KRO1 121126Z 20011KT 28/18 A2993 RMK A01 T02760181  RH  056%=      5-min Rain = 0
KRO1 121127Z 20010KT 28/18 A2993 RMK A01 T02750181  RH  056%=      5-min Rain = 0
KRO1 121128Z 20011KT 28/18 A2993 RMK A01 T02750181  RH  056%=      5-min Rain = 0
KRO1 121129Z 21010KT 27/18 A2993 RMK A01 T02740181  RH  057%=      5-min Rain = 0
KRO1 121130Z 21010KT 27/18 A2993 RMK A01 T02740181  RH  057%=      5-min Rain = 0
KRO1 121131Z 21010KT 27/18 A2993 RMK A01 T02730181  RH  057%=      5-min Rain = 0
KRO1 121132Z 20009KT 27/18 A2993 RMK A01 T02720181  RH  057%=      5-min Rain = 0
KRO1 121133Z 20010KT 27/18 A2993 RMK A01 T02710180  RH  058%=      5-min Rain = 0
KRO1 121134Z 20009KT 27/18 A2993 RMK A01 T02710180  RH  058%=      5-min Rain = 0
KRO1 121135Z 20009KT 27/18 A2993 RMK A01 T02700180  RH  058%=      5-min Rain = 0
KRO1 121136Z 20010KT 27/18 A2993 RMK A01 T02700180  RH  058%=      5-min Rain = 0
KRO1 121137Z 20008KT 27/18 A2993 RMK A01 T02690180  RH  058%=      5-min Rain = 0
KRO1 121138Z 20009KT 27/18 A2993 RMK A01 T02690180  RH  058%=      5-min Rain = 0
KRO1 121139Z 20009KT 27/18 A2993 RMK A01 T02690180  RH  058%=      5-min Rain = 0
KRO1 121140Z 20010KT 27/18 A2993 RMK A01 T02690180  RH  058%=      5-min Rain = 0
KRO1 121141Z 20009KT 27/18 A2993 RMK A01 T02680180  RH  058%=      5-min Rain = 0
KRO1 121142Z 20009KT 27/18 A2993 RMK A01 T02680180  RH  058%=      5-min Rain = 0
KRO1 121143Z 20009KT 27/18 A2993 RMK A01 T02680180  RH  058%=      5-min Rain = 0
KRO1 121144Z 19010KT 27/18 A2993 RMK A01 T02680180  RH  058%=      5-min Rain = 0
KRO1 121145Z 19010KT 27/18 A2993 RMK A01 T02690181  RH  059%=      5-min Rain = 0
KRO1 121146Z 20011KT 27/18 A2993 RMK A01 T02690181  RH  058%=      5-min Rain = 0
KRO1 121147Z 19011KT 27/18 A2993 RMK A01 T02700181  RH  058%=      5-min Rain = 0
KRO1 121148Z 20012G17KT 27/18 A2993 RMK A01 T02700181  RH  058%=      5-min Rain = 0
KRO1 121149Z 20012KT 27/18 A2993 RMK A01 T02710183  RH  058%=      5-min Rain = 0
KRO1 121150Z 20012KT 27/18 A2993 RMK A01 T02720183  RH  058%=      5-min Rain = 0
KRO1 121151Z 20012KT 27/18 A2993 RMK A01 T02720183  RH  058%=      5-min Rain = 0
KRO1 121152Z 19011KT 27/18 A2993 RMK A01 T02720183  RH  058%=      5-min Rain = 0
KRO1 121153Z 20012KT 27/18 A2993 RMK A01 T02720184  RH  058%=      5-min Rain = 0
KRO1 121154Z 19012KT 27/18 A2993 RMK A01 T02720184  RH  058%=      5-min Rain = 0
KRO1 121155Z 19013KT 27/18 A2993 RMK A01 T02730184  RH  058%=      5-min Rain = 0
KRO1 121156Z 20012KT 27/19 A2993 RMK A01 T02740185  RH  058%=      5-min Rain = 0
KRO1 121157Z 20013KT 27/19 A2993 RMK A01 T02740185  RH  058%=      5-min Rain = 0
KRO1 121158Z 20014KT 27/19 A2993 RMK A01 T02740185  RH  058%=      5-min Rain = 0
KRO1 121159Z 20013KT 27/19 A2993 RMK A01 T02740186  RH  058%=      5-min Rain = 0
KRO1 121200Z 20014KT 28/19 A2993 RMK A01 T02750186  RH  058%=      5-min Rain = 0
KRO1 121201Z 20014KT 28/19 A2993 RMK A01 T02750186  RH  058%=      5-min Rain = 0
KRO1 121202Z 19014KT 28/19 A2993 RMK A01 T02750186  RH  058%=      5-min Rain = 0
KRO1 121203Z 20013G18KT 28/19 A2993 RMK A01 T02750187  RH  058%=      5-min Rain = 0
KRO1 121204Z 20014KT 28/19 A2993 RMK A01 T02760187  RH  059%=      5-min Rain = 0
KRO1 121205Z 19014KT 28/19 A2993 RMK A01 T02760187  RH  059%=      5-min Rain = 0
KRO1 121206Z 20015KT 28/19 A2993 RMK A01 T02760187  RH  059%=      5-min Rain = 0
KRO1 121207Z 20012G17KT 28/19 A2993 RMK A01 T02760187  RH  058%=      5-min Rain = 0
KRO1 121208Z 20014KT 28/19 A2993 RMK A01 T02760187  RH  058%=      5-min Rain = 0
KRO1 121209Z 19013KT 28/19 A2993 RMK A01 T02760187  RH  059%=      5-min Rain = 0
KRO1 121210Z 20012G17KT 28/19 A2993 RMK A01 T02760188  RH  059%=      5-min Rain = 0
KRO1 121211Z 19014KT 28/19 A2993 RMK A01 T02750188  RH  059%=      5-min Rain = 0
KRO1 121212Z 20014KT 28/19 A2994 RMK A01 T02750189  RH  059%=      5-min Rain = 0
KRO1 121213Z 20015KT 28/19 A2994 RMK A01 T02750189  RH  059%=      5-min Rain = 0
KRO1 121214Z 20015KT 28/19 A2994 RMK A01 T02760189  RH  059%=      5-min Rain = 0
KRO1 121215Z 20015KT 28/19 A2994 RMK A01 T02760189  RH  059%=      5-min Rain = 0
KRO1 121216Z 20013KT 28/19 A2994 RMK A01 T02760189  RH  059%=      5-min Rain = 0
KRO1 121217Z 20015KT 28/19 A2994 RMK A01 T02770190  RH  059%=      5-min Rain = 0
KRO1 121218Z 20015KT 28/19 A2994 RMK A01 T02760190  RH  059%=      5-min Rain = 0
KRO1 121219Z 20013KT 28/19 A2994 RMK A01 T02760190  RH  059%=      5-min Rain = 0
KRO1 121220Z 20014KT 28/19 A2994 RMK A01 T02760190  RH  059%=      5-min Rain = 0
KRO1 121221Z 20012KT 28/19 A2994 RMK A01 T02760190  RH  059%=      5-min Rain = 0
KRO1 121222Z 20012KT 28/19 A2994 RMK A01 T02750190  RH  060%=      5-min Rain = 0
KRO1 121223Z 20013KT 28/19 A2994 RMK A01 T02750190  RH  060%=      5-min Rain = 0
KRO1 121224Z 20013KT 28/19 A2994 RMK A01 T02750190  RH  060%=      5-min Rain = 0
KRO1 121225Z 20014KT 28/19 A2994 RMK A01 T02750191  RH  060%=      5-min Rain = 0
KRO1 121226Z 20012KT 28/19 A2994 RMK A01 T02750190  RH  060%=      5-min Rain = 0
KRO1 121227Z 20013KT 28/19 A2994 RMK A01 T02750190  RH  060%=      5-min Rain = 0
KRO1 121228Z 20012KT 28/19 A2994 RMK A01 T02750191  RH  060%=      5-min Rain = 0
KRO1 121229Z 20012KT 28/19 A2994 RMK A01 T02750191  RH  060%=      5-min Rain = 0
KRO1 121230Z 20014KT 28/19 A2994 RMK A01 T02750191  RH  060%=      5-min Rain = 0
KRO1 121231Z 20014KT 27/19 A2994 RMK A01 T02740191  RH  060%=      5-min Rain = 0
KRO1 121232Z 20011KT 28/19 A2994 RMK A01 T02750191  RH  060%=      5-min Rain = 0
KRO1 121233Z 20013KT 28/19 A2994 RMK A01 T02750191  RH  060%=      5-min Rain = 0
KRO1 121234Z 21012KT 28/19 A2994 RMK A01 T02750191  RH  060%=      5-min Rain = 0
KRO1 121235Z 20012KT 28/19 A2994 RMK A01 T02750191  RH  060%=      5-min Rain = 0
KRO1 121236Z 20012KT 28/19 A2994 RMK A01 T02750191  RH  060%=      5-min Rain = 0
KRO1 121237Z 20014KT 28/19 A2994 RMK A01 T02750192  RH  061%=      5-min Rain = 0
KRO1 121238Z 20013KT 28/19 A2994 RMK A01 T02750192  RH  061%=      5-min Rain = 0
KRO1 121239Z 20014KT 28/19 A2994 RMK A01 T02750192  RH  061%=      5-min Rain = 0
KRO1 121240Z 20013KT 27/19 A2994 RMK A01 T02740192  RH  061%=      5-min Rain = 0
KRO1 121241Z 21013KT 27/19 A2994 RMK A01 T02740192  RH  061%=      5-min Rain = 0
KRO1 121242Z 21012KT 27/19 A2994 RMK A01 T02740192  RH  061%=      5-min Rain = 0
KRO1 121243Z 21012KT 28/19 A2994 RMK A01 T02750192  RH  061%=      5-min Rain = 0
KRO1 121244Z 21012KT 28/19 A2994 RMK A01 T02750192  RH  061%=      5-min Rain = 0
KRO1 121245Z 21012KT 28/19 A2994 RMK A01 T02750193  RH  061%=      5-min Rain = 0
KRO1 121246Z 21013KT 28/19 A2994 RMK A01 T02750193  RH  061%=      5-min Rain = 0
KRO1 121247Z 21012KT 27/19 A2994 RMK A01 T02740192  RH  061%=      5-min Rain = 0
KRO1 121248Z 21013KT 28/19 A2994 RMK A01 T02750193  RH  061%=      5-min Rain = 0
KRO1 121249Z 21013KT 28/19 A2994 RMK A01 T02750193  RH  061%=      5-min Rain = 0
KRO1 121250Z 20014KT 28/19 A2994 RMK A01 T02750193  RH  061%=      5-min Rain = 0
KRO1 121251Z 21012KT 28/19 A2994 RMK A01 T02750193  RH  061%=      5-min Rain = 0
KRO1 121252Z 21012KT 28/19 A2994 RMK A01 T02750193  RH  061%=      5-min Rain = 0
KRO1 121253Z 20014KT 28/19 A2994 RMK A01 T02750193  RH  061%=      5-min Rain = 0
KRO1 121254Z 21015KT 28/19 A2994 RMK A01 T02750194  RH  061%=      5-min Rain = 0
KRO1 121255Z 21013KT 28/19 A2994 RMK A01 T02760194  RH  061%=      5-min Rain = 0
KRO1 121256Z 21011KT 28/19 A2994 RMK A01 T02760194  RH  061%=      5-min Rain = 0
KRO1 121257Z 21015KT 28/20 A2994 RMK A01 T02760195  RH  061%=      5-min Rain = 0
KRO1 121258Z 21013KT 28/19 A2994 RMK A01 T02760194  RH  061%=      5-min Rain = 0
KRO1 121259Z 20016KT 28/19 A2994 RMK A01 T02760194  RH  061%=      5-min Rain = 0
KRO1 121300Z 21014KT 28/19 A2994 RMK A01 T02760194  RH  061%=      5-min Rain = 0
KRO1 121301Z 21013KT 28/19 A2994 RMK A01 T02760194  RH  061%=      5-min Rain = 0
KRO1 121302Z 20013KT 28/20 A2994 RMK A01 T02770195  RH  061%=      5-min Rain = 0
KRO1 121303Z 21015KT 28/20 A2994 RMK A01 T02770195  RH  061%=      5-min Rain = 0
KRO1 121304Z 20017KT 28/20 A2994 RMK A01 T02770195  RH  061%=      5-min Rain = 0
KRO1 121305Z 20016KT 28/20 A2994 RMK A01 T02770195  RH  061%=      5-min Rain = 0
KRO1 121306Z 20013KT 28/20 A2994 RMK A01 T02770196  RH  061%=      5-min Rain = 0
KRO1 121307Z 21017KT 28/20 A2994 RMK A01 T02780196  RH  061%=      5-min Rain = 0
KRO1 121308Z 21015KT 28/20 A2994 RMK A01 T02780196  RH  061%=      5-min Rain = 0
KRO1 121309Z 21015KT 28/20 A2994 RMK A01 T02780197  RH  061%=      5-min Rain = 0
KRO1 121310Z 21014G19KT 28/20 A2994 RMK A01 T02780197  RH  061%=      5-min Rain = 0
KRO1 121311Z 21014KT 28/20 A2994 RMK A01 T02790197  RH  061%=      5-min Rain = 0
KRO1 121312Z 21016KT 28/20 A2994 RMK A01 T02790198  RH  061%=      5-min Rain = 0
KRO1 121313Z 21014KT 28/20 A2994 RMK A01 T02790197  RH  061%=      5-min Rain = 0
KRO1 121314Z 21013KT 28/20 A2994 RMK A01 T02790198  RH  061%=      5-min Rain = 0
KRO1 121315Z 20013KT 28/20 A2995 RMK A01 T02790198  RH  061%=      5-min Rain = 0
KRO1 121316Z 21014G20KT 28/20 A2995 RMK A01 T02800199  RH  061%=      5-min Rain = 0
KRO1 121317Z 20015KT 28/20 A2994 RMK A01 T02800199  RH  061%=      5-min Rain = 0
KRO1 121318Z 21014KT 28/20 A2995 RMK A01 T02800199  RH  061%=      5-min Rain = 0
KRO1 121319Z 21016KT 28/20 A2995 RMK A01 T02800199  RH  061%=      5-min Rain = 0
KRO1 121320Z 21013KT 28/20 A2995 RMK A01 T02810199  RH  061%=      5-min Rain = 0
KRO1 121321Z 21015KT 28/20 A2995 RMK A01 T02810200  RH  061%=      5-min Rain = 0
KRO1 121322Z 21012G17KT 28/20 A2995 RMK A01 T02810200  RH  061%=      5-min Rain = 0
KRO1 121323Z 21015KT 28/20 A2995 RMK A01 T02810200  RH  061%=      5-min Rain = 0
KRO1 121324Z 21015KT 28/20 A2995 RMK A01 T02820200  RH  061%=      5-min Rain = 0
KRO1 121325Z 21013KT 28/20 A2995 RMK A01 T02820200  RH  061%=      5-min Rain = 0
KRO1 121326Z 21015KT 28/20 A2995 RMK A01 T02820201  RH  061%=      5-min Rain = 0
KRO1 121327Z 20015KT 28/20 A2995 RMK A01 T02830201  RH  061%=      5-min Rain = 0
KRO1 121328Z 21013KT 28/20 A2995 RMK A01 T02830202  RH  061%=      5-min Rain = 0
KRO1 121329Z 21014KT 28/20 A2995 RMK A01 T02830202  RH  061%=      5-min Rain = 0
KRO1 121330Z 20014KT 28/20 A2995 RMK A01 T02840202  RH  061%=      5-min Rain = 0
KRO1 121331Z 21015KT 28/20 A2995 RMK A01 T02840202  RH  061%=      5-min Rain = 0
KRO1 121332Z 21015KT 28/20 A2995 RMK A01 T02840203  RH  061%=      5-min Rain = 0
KRO1 121333Z 21014KT 28/20 A2994 RMK A01 T02840202  RH  061%=      5-min Rain = 0
KRO1 121334Z 20014KT 29/20 A2995 RMK A01 T02850204  RH  061%=      5-min Rain = 0
KRO1 121335Z 20013KT 29/20 A2995 RMK A01 T02860204  RH  061%=      5-min Rain = 0
KRO1 121336Z 21013KT 29/21 A2995 RMK A01 T02860205  RH  061%=      5-min Rain = 0
KRO1 121337Z 21012KT 29/21 A2995 RMK A01 T02870205  RH  061%=      5-min Rain = 0
KRO1 121338Z 21013KT 29/20 A2995 RMK A01 T02870204  RH  061%=      5-min Rain = 0
KRO1 121339Z 21013KT 29/21 A2995 RMK A01 T02880205  RH  061%=      5-min Rain = 0
KRO1 121340Z 21014KT 29/21 A2995 RMK A01 T02880205  RH  061%=      5-min Rain = 0
KRO1 121341Z 21015KT 29/21 A2995 RMK A01 T02880205  RH  061%=      5-min Rain = 0
KRO1 121342Z 21017G22KT 29/21 A2995 RMK A01 T02880205  RH  061%=      5-min Rain = 0
KRO1 121343Z 20018KT 29/21 A2994 RMK A01 T02880205  RH  061%=      5-min Rain = 0
KRO1 121344Z 21015KT 29/21 A2995 RMK A01 T02890206  RH  061%=      5-min Rain = 0
KRO1 121345Z 21016G21KT 29/21 A2995 RMK A01 T02890206  RH  061%=      5-min Rain = 0
KRO1 121346Z 20018KT 29/21 A2995 RMK A01 T02890205  RH  060%=      5-min Rain = 0
KRO1 121347Z 20016KT 29/21 A2995 RMK A01 T02890206  RH  061%=      5-min Rain = 0
KRO1 121348Z 21015KT 29/21 A2995 RMK A01 T02900207  RH  061%=      5-min Rain = 0
KRO1 121349Z 21018KT 29/21 A2995 RMK A01 T02900206  RH  061%=      5-min Rain = 0
KRO1 121350Z 21018KT 29/21 A2995 RMK A01 T02900206  RH  060%=      5-min Rain = 0
KRO1 121351Z 21016KT 29/21 A2995 RMK A01 T02910206  RH  060%=      5-min Rain = 0
KRO1 121352Z 21013KT 29/21 A2995 RMK A01 T02910207  RH  060%=      5-min Rain = 0
KRO1 121353Z 21017G22KT 29/21 A2995 RMK A01 T02920207  RH  060%=      5-min Rain = 0
KRO1 121354Z 21018KT 29/21 A2995 RMK A01 T02930207  RH  060%=      5-min Rain = 0
KRO1 121355Z 21018KT 29/21 A2995 RMK A01 T02930207  RH  060%=      5-min Rain = 0
KRO1 121356Z 21018KT 29/21 A2995 RMK A01 T02920206  RH  060%=      5-min Rain = 0
KRO1 121357Z 21015KT 29/21 A2995 RMK A01 T02930207  RH  060%=      5-min Rain = 0
KRO1 121358Z 20016KT 29/21 A2995 RMK A01 T02930207  RH  060%=      5-min Rain = 0
KRO1 121359Z 21015G21KT 29/21 A2995 RMK A01 T02940208  RH  060%=      5-min Rain = 0
KRO1 121400Z 20019KT 30/21 A2995 RMK A01 T02950207  RH  059%=      5-min Rain = 0
KRO1 121401Z 20016KT 30/21 A2995 RMK A01 T02950207  RH  059%=      5-min Rain = 0
KRO1 121402Z 20016KT 30/21 A2995 RMK A01 T02950207  RH  059%=      5-min Rain = 0
KRO1 121403Z 20015KT 30/21 A2995 RMK A01 T02950207  RH  059%=      5-min Rain = 0
KRO1 121404Z 20014KT 30/21 A2995 RMK A01 T02960208  RH  059%=      5-min Rain = 0
KRO1 121405Z 21019KT 30/21 A2995 RMK A01 T02960208  RH  059%=      5-min Rain = 0
KRO1 121406Z 21019KT 30/21 A2995 RMK A01 T02970208  RH  059%=      5-min Rain = 0
KRO1 121407Z 21015KT 30/21 A2995 RMK A01 T02970209  RH  059%=      5-min Rain = 0
KRO1 121408Z 21019KT 30/21 A2995 RMK A01 T02970209  RH  059%=      5-min Rain = 0
KRO1 121409Z 21019KT 30/21 A2995 RMK A01 T02970208  RH  059%=      5-min Rain = 0
KRO1 121410Z 21018KT 30/21 A2995 RMK A01 T02970208  RH  059%=      5-min Rain = 0
KRO1 121411Z 20016KT 30/21 A2995 RMK A01 T02970208  RH  059%=      5-min Rain = 0
KRO1 121412Z 20014KT 30/21 A2995 RMK A01 T02990209  RH  059%=      5-min Rain = 0
KRO1 121413Z 20016KT 30/21 A2995 RMK A01 T02990209  RH  058%=      5-min Rain = 0
KRO1 121414Z 21015KT 30/21 A2995 RMK A01 T03000210  RH  058%=      5-min Rain = 0
KRO1 121415Z 21015G20KT 30/21 A2995 RMK A01 T03010210  RH  058%=      5-min Rain = 0
KRO1 121416Z 20013KT 30/21 A2995 RMK A01 T03010209  RH  058%=      5-min Rain = 0
KRO1 121417Z 19017G23KT 30/21 A2995 RMK A01 T03020210  RH  058%=      5-min Rain = 0
KRO1 121418Z 20021KT 30/21 A2994 RMK A01 T03030208  RH  057%=      5-min Rain = 0
KRO1 121419Z 20016KT 30/21 A2995 RMK A01 T03020209  RH  057%=      5-min Rain = 0
KRO1 121420Z 21017KT 30/21 A2995 RMK A01 T03020209  RH  058%=      5-min Rain = 0
KRO1 121421Z 20015KT 30/21 A2995 RMK A01 T03030210  RH  058%=      5-min Rain = 0
KRO1 121422Z 21018KT 30/21 A2995 RMK A01 T03040209  RH  057%=      5-min Rain = 0
KRO1 121423Z 21017KT 30/21 A2995 RMK A01 T03040207  RH  056%=      5-min Rain = 0
KRO1 121424Z 20018KT 30/21 A2995 RMK A01 T03040208  RH  057%=      5-min Rain = 0
KRO1 121425Z 21018KT 30/21 A2995 RMK A01 T03040208  RH  057%=      5-min Rain = 0
KRO1 121426Z 20017G23KT 30/21 A2995 RMK A01 T03040207  RH  056%=      5-min Rain = 0
KRO1 121427Z 20018KT 31/21 A2995 RMK A01 T03050208  RH  056%=      5-min Rain = 0
KRO1 121428Z 21015KT 31/21 A2995 RMK A01 T03060208  RH  056%=      5-min Rain = 0
KRO1 121429Z 21013KT 31/21 A2995 RMK A01 T03070209  RH  056%=      5-min Rain = 0
KRO1 121430Z 20018KT 31/21 A2995 RMK A01 T03080208  RH  055%=      5-min Rain = 0
KRO1 121431Z 20018KT 31/21 A2995 RMK A01 T03080206  RH  054%=      5-min Rain = 0
KRO1 121432Z 21016KT 31/21 A2995 RMK A01 T03080207  RH  055%=      5-min Rain = 0
KRO1 121433Z 21016KT 31/21 A2995 RMK A01 T03080208  RH  055%=      5-min Rain = 0
KRO1 121434Z 20014KT 31/21 A2995 RMK A01 T03080208  RH  055%=      5-min Rain = 0
KRO1 121435Z 21016KT 31/21 A2995 RMK A01 T03100209  RH  055%=      5-min Rain = 0
KRO1 121436Z 20017KT 31/21 A2995 RMK A01 T03100207  RH  054%=      5-min Rain = 0
KRO1 121437Z 21015KT 31/21 A2995 RMK A01 T03100208  RH  055%=      5-min Rain = 0
KRO1 121438Z 21016KT 31/21 A2995 RMK A01 T03090208  RH  055%=      5-min Rain = 0
KRO1 121439Z 20014KT 31/21 A2995 RMK A01 T03100209  RH  055%=      5-min Rain = 0
KRO1 121440Z 21014KT 31/21 A2995 RMK A01 T03120209  RH  054%=      5-min Rain = 0
KRO1 121441Z 21019KT 31/21 A2994 RMK A01 T03120207  RH  054%=      5-min Rain = 0
KRO1 121442Z 20016KT 31/21 A2994 RMK A01 T03120208  RH  054%=      5-min Rain = 0
KRO1 121443Z 20015KT 31/21 A2994 RMK A01 T03120208  RH  054%=      5-min Rain = 0
KRO1 121444Z 21016KT 31/21 A2995 RMK A01 T03130208  RH  054%=      5-min Rain = 0
KRO1 121445Z 21016KT 31/21 A2995 RMK A01 T03130208  RH  054%=      5-min Rain = 0
KRO1 121446Z 21015KT 31/21 A2995 RMK A01 T03140208  RH  053%=      5-min Rain = 0
KRO1 121447Z 20015G20KT 31/21 A2995 RMK A01 T03140209  RH  054%=      5-min Rain = 0
KRO1 121448Z 20015KT 32/21 A2995 RMK A01 T03160207  RH  053%=      5-min Rain = 0
KRO1 121449Z 20015G20KT 32/21 A2995 RMK A01 T03160208  RH  053%=      5-min Rain = 0
KRO1 121450Z 20016KT 32/21 A2995 RMK A01 T03160207  RH  052%=      5-min Rain = 0
KRO1 121451Z 20016KT 32/21 A2995 RMK A01 T03170208  RH  053%=      5-min Rain = 0
KRO1 121452Z 21014KT 32/21 A2995 RMK A01 T03170209  RH  053%=      5-min Rain = 0
KRO1 121453Z 21015KT 32/21 A2995 RMK A01 T03180209  RH  052%=      5-min Rain = 0
KRO1 121454Z 20018KT 32/21 A2995 RMK A01 T03170208  RH  053%=      5-min Rain = 0
KRO1 121455Z 20014KT 32/21 A2995 RMK A01 T03150207  RH  053%=      5-min Rain = 0
KRO1 121456Z 21012G18KT 32/21 A2995 RMK A01 T03160209  RH  053%=      5-min Rain = 0
KRO1 121457Z 22015KT 32/21 A2995 RMK A01 T03180209  RH  052%=      5-min Rain = 0
KRO1 121458Z 21014KT 32/21 A2995 RMK A01 T03180208  RH  052%=      5-min Rain = 0
KRO1 121459Z 22014KT 32/21 A2995 RMK A01 T03180209  RH  052%=      5-min Rain = 0
KRO1 121500Z 21018KT 32/21 A2995 RMK A01 T03180208  RH  052%=      5-min Rain = 0
KRO1 121501Z 21016KT 32/21 A2995 RMK A01 T03160207  RH  052%=      5-min Rain = 0
KRO1 121502Z 21015G20KT 32/21 A2995 RMK A01 T03150208  RH  053%=      5-min Rain = 0
KRO1 121503Z 21017KT 32/21 A2995 RMK A01 T03150207  RH  053%=      5-min Rain = 0
KRO1 121504Z 22016KT 32/21 A2995 RMK A01 T03150208  RH  053%=      5-min Rain = 0
KRO1 121505Z 21014KT 32/21 A2995 RMK A01 T03150208  RH  053%=      5-min Rain = 0
KRO1 121506Z 21016KT 32/21 A2995 RMK A01 T03160207  RH  052%=      5-min Rain = 0
KRO1 121507Z 21017KT 32/21 A2995 RMK A01 T03170206  RH  052%=      5-min Rain = 0
KRO1 121508Z 21014KT 32/21 A2995 RMK A01 T03170207  RH  052%=      5-min Rain = 0
KRO1 121509Z 21014KT 32/21 A2995 RMK A01 T03180207  RH  052%=      5-min Rain = 0
KRO1 121510Z 20015KT 32/21 A2995 RMK A01 T03190207  RH  052%=      5-min Rain = 0
KRO1 121511Z 20015KT 32/21 A2995 RMK A01 T03190208  RH  052%=      5-min Rain = 0
KRO1 121512Z 20013KT 32/21 A2995 RMK A01 T03190208  RH  052%=      5-min Rain = 0
KRO1 121513Z 21015KT 32/21 A2995 RMK A01 T03190208  RH  052%=      5-min Rain = 0
KRO1 121514Z 21011KT 32/21 A2995 RMK A01 T03200208  RH  052%=      5-min Rain = 0
KRO1 121515Z 22013KT 32/21 A2995 RMK A01 T03200210  RH  052%=      5-min Rain = 0
KRO1 121516Z 21013KT 32/21 A2995 RMK A01 T03220209  RH  051%=      5-min Rain = 0
KRO1 121517Z 21010KT 32/21 A2995 RMK A01 T03220210  RH  052%=      5-min Rain = 0
KRO1 121518Z 21012KT 33/21 A2995 RMK A01 T03250212  RH  052%=      5-min Rain = 0
KRO1 121519Z 20013KT 33/21 A2995 RMK A01 T03260211  RH  051%=      5-min Rain = 0
KRO1 121520Z 21016KT 33/21 A2995 RMK A01 T03260209  RH  050%=      5-min Rain = 0
KRO1 121521Z 22016KT 33/21 A2995 RMK A01 T03250207  RH  050%=      5-min Rain = 0
KRO1 121522Z 20013KT 32/21 A2995 RMK A01 T03240208  RH  050%=      5-min Rain = 0
KRO1 121523Z 21014G19KT 33/21 A2995 RMK A01 T03250209  RH  050%=      5-min Rain = 0
KRO1 121524Z 21016KT 33/21 A2995 RMK A01 T03250207  RH  050%=      5-min Rain = 0
KRO1 121525Z 21013KT 32/21 A2995 RMK A01 T03230207  RH  051%=      5-min Rain = 0
KRO1 121526Z 21011KT 32/21 A2995 RMK A01 T03220209  RH  051%=      5-min Rain = 0
KRO1 121527Z 21016KT 32/21 A2995 RMK A01 T03240206  RH  050%=      5-min Rain = 0
KRO1 121528Z 20017KT 32/21 A2995 RMK A01 T03240206  RH  050%=      5-min Rain = 0
KRO1 121529Z 21013KT 32/21 A2995 RMK A01 T03230207  RH  050%=      5-min Rain = 0
KRO1 121530Z 22015KT 32/21 A2995 RMK A01 T03230208  RH  051%=      5-min Rain = 0
KRO1 121531Z 21016KT 33/21 A2995 RMK A01 T03250206  RH  050%=      5-min Rain = 0
KRO1 121532Z 20017KT 33/21 A2995 RMK A01 T03250206  RH  049%=      5-min Rain = 0
KRO1 121533Z 20017KT 33/21 A2995 RMK A01 T03250207  RH  050%=      5-min Rain = 0
KRO1 121534Z 20015KT 33/21 A2995 RMK A01 T03250206  RH  050%=      5-min Rain = 0
KRO1 121535Z 21017KT 32/21 A2995 RMK A01 T03240207  RH  050%=      5-min Rain = 0
KRO1 121536Z 21016KT 33/21 A2995 RMK A01 T03250207  RH  050%=      5-min Rain = 0
KRO1 121537Z 21016KT 33/21 A2995 RMK A01 T03250207  RH  050%=      5-min Rain = 0
KRO1 121538Z 21015KT 33/21 A2995 RMK A01 T03250207  RH  050%=      5-min Rain = 0
KRO1 121539Z 21015KT 33/21 A2995 RMK A01 T03250207  RH  050%=      5-min Rain = 0
KRO1 121540Z 21013KT 33/21 A2995 RMK A01 T03260209  RH  050%=      5-min Rain = 0
KRO1 121541Z 20013G20KT 33/21 A2995 RMK A01 T03290209  RH  049%=      5-min Rain = 0
KRO1 121542Z 21015KT 33/21 A2995 RMK A01 T03290210  RH  050%=      5-min Rain = 0
KRO1 121543Z 20017KT 33/21 A2995 RMK A01 T03300207  RH  048%=      5-min Rain = 0
KRO1 121544Z 20014KT 33/21 A2995 RMK A01 T03300207  RH  049%=      5-min Rain = 0
KRO1 121545Z 20012KT 33/21 A2995 RMK A01 T03300208  RH  049%=      5-min Rain = 0
KRO1 121546Z 20014G20KT 33/21 A2995 RMK A01 T03300208  RH  049%=      5-min Rain = 0
KRO1 121547Z 21016KT 33/21 A2995 RMK A01 T03300207  RH  049%=      5-min Rain = 0
KRO1 121548Z 21013KT 33/21 A2995 RMK A01 T03300207  RH  049%=      5-min Rain = 0
KRO1 121549Z 21015KT 33/21 A2996 RMK A01 T03300207  RH  049%=      5-min Rain = 0
KRO1 121550Z 22016KT 33/21 A2995 RMK A01 T03290206  RH  048%=      5-min Rain = 0
KRO1 121551Z 22015KT 33/21 A2996 RMK A01 T03280205  RH  048%=      5-min Rain = 0
KRO1 121552Z 22013KT 33/21 A2996 RMK A01 T03290206  RH  049%=      5-min Rain = 0
KRO1 121553Z 21014KT 33/21 A2996 RMK A01 T03290207  RH  049%=      5-min Rain = 0
KRO1 121554Z 21014KT 33/21 A2996 RMK A01 T03310208  RH  048%=      5-min Rain = 0
KRO1 121555Z 21017KT 33/21 A2996 RMK A01 T03330206  RH  048%=      5-min Rain = 0
KRO1 121556Z 20014KT 33/21 A2996 RMK A01 T03320206  RH  048%=      5-min Rain = 0
KRO1 121557Z 20011KT 33/21 A2996 RMK A01 T03310206  RH  048%=      5-min Rain = 0
KRO1 121558Z 19015KT 33/21 A2996 RMK A01 T03340206  RH  047%=      5-min Rain = 0
KRO1 121559Z 19015KT 33/21 A2996 RMK A01 T03340207  RH  047%=      5-min Rain = 0
KRO1 121600Z 19015KT 34/21 A2996 RMK A01 T03350206  RH  047%=      5-min Rain = 0
KRO1 121601Z 19014KT 34/21 A2996 RMK A01 T03350205  RH  047%=      5-min Rain = 0
KRO1 121602Z 19013KT 34/21 A2996 RMK A01 T03350205  RH  046%=      5-min Rain = 0
KRO1 121603Z 21012KT 34/21 A2996 RMK A01 T03360207  RH  047%=      5-min Rain = 0
KRO1 121604Z 21011KT 34/21 A2996 RMK A01 T03360208  RH  047%=      5-min Rain = 0
KRO1 121605Z 19014KT 34/21 A2996 RMK A01 T03380207  RH  046%=      5-min Rain = 0
KRO1 121606Z 19016KT 34/20 A2996 RMK A01 T03390204  RH  045%=      5-min Rain = 0
KRO1 121607Z 20016KT 34/20 A2996 RMK A01 T03390204  RH  045%=      5-min Rain = 0
KRO1 121608Z 20013G18KT 34/20 A2996 RMK A01 T03370204  RH  046%=      5-min Rain = 0
KRO1 121609Z 21013KT 34/21 A2996 RMK A01 T03370206  RH  046%=      5-min Rain = 0
KRO1 121610Z 21013KT 34/21 A2996 RMK A01 T03370205  RH  046%=      5-min Rain = 0
KRO1 121611Z 19016KT 34/21 A2996 RMK A01 T03360206  RH  046%=      5-min Rain = 0
KRO1 121612Z 20015KT 34/21 A2996 RMK A01 T03360205  RH  046%=      5-min Rain = 0
KRO1 121613Z 20015KT 34/21 A2996 RMK A01 T03370205  RH  046%=      5-min Rain = 0
KRO1 121614Z 20014KT 34/21 A2996 RMK A01 T03370205  RH  046%=      5-min Rain = 0
KRO1 121615Z 20014KT 34/21 A2996 RMK A01 T03380205  RH  046%=      5-min Rain = 0
KRO1 121616Z 20013KT 34/21 A2996 RMK A01 T03410207  RH  046%=      5-min Rain = 0
KRO1 121617Z 20014KT 34/21 A2996 RMK A01 T03410206  RH  045%=      5-min Rain = 0
KRO1 121618Z 19013KT 34/21 A2996 RMK A01 T03400206  RH  046%=      5-min Rain = 0
KRO1 121619Z 18013KT 34/21 A2996 RMK A01 T03400206  RH  046%=      5-min Rain = 0
KRO1 121620Z 18015KT 34/20 A2996 RMK A01 T03410204  RH  045%=      5-min Rain = 0
KRO1 121621Z 18014KT 34/20 A2996 RMK A01 T03410204  RH  045%=      5-min Rain = 0
KRO1 121622Z 18012KT 34/20 A2996 RMK A01 T03400203  RH  045%=      5-min Rain = 0
KRO1 121623Z 19012KT 34/21 A2996 RMK A01 T03390205  RH  046%=      5-min Rain = 0
KRO1 121624Z 18013G18KT 34/21 A2996 RMK A01 T03420206  RH  045%=      5-min Rain = 0
KRO1 121625Z 19013KT 35/21 A2996 RMK A01 T03450205  RH  044%=      5-min Rain = 0
KRO1 121626Z 20009KT 35/21 A2996 RMK A01 T03470207  RH  044%=      5-min Rain = 0
KRO1 121627Z 19014KT 35/20 A2996 RMK A01 T03500204  RH  043%=      5-min Rain = 0
KRO1 121628Z 20013KT 35/21 A2996 RMK A01 T03480205  RH  043%=      5-min Rain = 0
KRO1 121629Z 21012KT 35/21 A2996 RMK A01 T03470205  RH  044%=      5-min Rain = 0
KRO1 121630Z 20009KT 35/21 A2996 RMK A01 T03460206  RH  044%=      5-min Rain = 0
KRO1 121631Z 20010KT 34/21 A2996 RMK A01 T03440206  RH  045%=      5-min Rain = 0
KRO1 121632Z 20010KT 34/20 A2996 RMK A01 T03440204  RH  044%=      5-min Rain = 0
KRO1 121633Z 19010KT 34/20 A2996 RMK A01 T03440204  RH  044%=      5-min Rain = 0
KRO1 121634Z 19012KT 35/20 A2996 RMK A01 T03460203  RH  043%=      5-min Rain = 0
KRO1 121635Z 20014KT 35/20 A2996 RMK A01 T03460204  RH  044%=      5-min Rain = 0
KRO1 121636Z 20012KT 35/21 A2996 RMK A01 T03460206  RH  044%=      5-min Rain = 0
KRO1 121637Z 20012KT 35/20 A2996 RMK A01 T03460203  RH  043%=      5-min Rain = 0
KRO1 121638Z 21008KT 35/20 A2996 RMK A01 T03450202  RH  043%=      5-min Rain = 0
KRO1 121639Z 23008KT 34/20 A2996 RMK A01 T03430204  RH  044%=      5-min Rain = 0
KRO1 121640Z 21008KT 34/21 A2996 RMK A01 T03440205  RH  044%=      5-min Rain = 0
KRO1 121641Z 20012KT 35/20 A2996 RMK A01 T03470203  RH  043%=      5-min Rain = 0
KRO1 121642Z 20012KT 35/20 A2996 RMK A01 T03480203  RH  043%=      5-min Rain = 0
KRO1 121643Z 22012KT 35/21 A2996 RMK A01 T03490208  RH  044%=      5-min Rain = 0
KRO1 121644Z 21010KT 35/21 A2996 RMK A01 T03520208  RH  043%=      5-min Rain = 0
KRO1 121645Z 20013KT 35/21 A2996 RMK A01 T03540208  RH  043%=      5-min Rain = 0
KRO1 121646Z 20012KT 35/21 A2996 RMK A01 T03540205  RH  042%=      5-min Rain = 0
KRO1 121647Z 19010KT 35/20 A2996 RMK A01 T03500204  RH  043%=      5-min Rain = 0
KRO1 121648Z 19008KT 35/20 A2996 RMK A01 T03480202  RH  042%=      5-min Rain = 0
KRO1 121649Z 19008KT 35/20 A2996 RMK A01 T03470204  RH  043%=      5-min Rain = 0
KRO1 121650Z 18010KT 35/20 A2995 RMK A01 T03500204  RH  043%=      5-min Rain = 0
KRO1 121651Z 19013KT 35/20 A2995 RMK A01 T03540204  RH  042%=      5-min Rain = 0
KRO1 121652Z 20012KT 35/21 A2995 RMK A01 T03540205  RH  042%=      5-min Rain = 0
KRO1 121653Z 19012KT 36/20 A2995 RMK A01 T03550203  RH  041%=      5-min Rain = 0
KRO1 121654Z 19008G13KT 35/20 A2995 RMK A01 T03530201  RH  041%=      5-min Rain = 0
KRO1 121655Z 19010KT 35/20 A2995 RMK A01 T03530203  RH  042%=      5-min Rain = 0
KRO1 121656Z 20013KT 35/20 A2995 RMK A01 T03530202  RH  041%=      5-min Rain = 0
KRO1 121657Z 20012KT 35/20 A2995 RMK A01 T03530203  RH  042%=      5-min Rain = 0
KRO1 121658Z 20009KT 35/20 A2995 RMK A01 T03510201  RH  041%=      5-min Rain = 0
KRO1 121659Z 18008G15KT 35/20 A2995 RMK A01 T03500203  RH  042%=      5-min Rain = 0
KRO1 121700Z 17012KT 35/20 A2995 RMK A01 T03530201  RH  041%=      5-min Rain = 0
KRO1 121701Z 17010KT 35/20 A2995 RMK A01 T03530202  RH  041%=      5-min Rain = 0
KRO1 121702Z 19010KT 35/20 A2995 RMK A01 T03540203  RH  041%=      5-min Rain = 0
KRO1 121703Z 21009KT 36/21 A2995 RMK A01 T03590205  RH  041%=      5-min Rain = 0
KRO1 121704Z 21014KT 36/21 A2995 RMK A01 T03620205  RH  040%=      5-min Rain = 0
KRO1 121705Z 21012KT 36/21 A2995 RMK A01 T03590205  RH  041%=      5-min Rain = 0
KRO1 121706Z 22011KT 36/20 A2995 RMK A01 T03590204  RH  041%=      5-min Rain = 0
KRO1 121707Z 22008KT 36/20 A2995 RMK A01 T03580204  RH  041%=      5-min Rain = 0
KRO1 121708Z 20009KT 36/20 A2995 RMK A01 T03560203  RH  041%=      5-min Rain = 0
KRO1 121709Z 19005KT 36/20 A2995 RMK A01 T03550200  RH  040%=      5-min Rain = 0
KRO1 121710Z 19007KT 36/20 A2995 RMK A01 T03550201  RH  041%=      5-min Rain = 0
KRO1 121711Z 20007KT 36/20 A2995 RMK A01 T03580201  RH  040%=      5-min Rain = 0
KRO1 121712Z 20006KT 36/20 A2995 RMK A01 T03610200  RH  039%=      5-min Rain = 0
KRO1 121713Z 20010KT 36/20 A2995 RMK A01 T03600201  RH  039%=      5-min Rain = 0
KRO1 121714Z 20011KT 36/20 A2995 RMK A01 T03600199  RH  039%=      5-min Rain = 0
KRO1 121715Z 20011KT 36/20 A2995 RMK A01 T03620199  RH  039%=      5-min Rain = 0
KRO1 121716Z 19010KT 36/20 A2995 RMK A01 T03630200  RH  039%=      5-min Rain = 0
KRO1 121717Z 20011KT 37/20 A2995 RMK A01 T03650199  RH  038%=      5-min Rain = 0
KRO1 121718Z 21011KT 37/20 A2995 RMK A01 T03650202  RH  039%=      5-min Rain = 0
KRO1 121719Z 21010KT 36/20 A2995 RMK A01 T03630202  RH  039%=      5-min Rain = 0
KRO1 121720Z 21009KT 37/20 A2995 RMK A01 T03650204  RH  039%=      5-min Rain = 0
KRO1 121721Z 20008KT 37/20 A2995 RMK A01 T03650201  RH  039%=      5-min Rain = 0
KRO1 121722Z 20006KT 36/20 A2995 RMK A01 T03630201  RH  039%=      5-min Rain = 0
KRO1 121723Z 20007KT 36/20 A2995 RMK A01 T03610202  RH  039%=      5-min Rain = 0
KRO1 121724Z 21011KT 36/20 A2995 RMK A01 T03620203  RH  040%=      5-min Rain = 0
KRO1 121725Z 20010KT 36/20 A2995 RMK A01 T03630202  RH  039%=      5-min Rain = 0
KRO1 121726Z 19009KT 36/20 A2994 RMK A01 T03630201  RH  039%=      5-min Rain = 0
KRO1 121727Z 20011KT 37/20 A2994 RMK A01 T03670200  RH  038%=      5-min Rain = 0
KRO1 121728Z 19008KT 37/20 A2995 RMK A01 T03670197  RH  037%=      5-min Rain = 0
KRO1 121729Z 18005KT 36/20 A2995 RMK A01 T03630195  RH  038%=      5-min Rain = 0
KRO1 121730Z 17010KT 37/20 A2994 RMK A01 T03650200  RH  038%=      5-min Rain = 0
KRO1 121731Z 18011KT 37/20 A2995 RMK A01 T03680202  RH  038%=      5-min Rain = 0
KRO1 121732Z 18009KT 37/20 A2995 RMK A01 T03660201  RH  038%=      5-min Rain = 0
KRO1 121733Z 16008KT 36/20 A2995 RMK A01 T03620199  RH  039%=      5-min Rain = 0
KRO1 121734Z 15007KT 36/20 A2994 RMK A01 T03610199  RH  039%=      5-min Rain = 0
KRO1 121735Z 19004KT 36/20 A2994 RMK A01 T03610200  RH  039%=      5-min Rain = 0
KRO1 121736Z 21008KT 36/20 A2994 RMK A01 T03620200  RH  039%=      5-min Rain = 0
KRO1 121737Z 19008KT 36/20 A2994 RMK A01 T03640203  RH  039%=      5-min Rain = 0
KRO1 121738Z 16010KT 37/21 A2994 RMK A01 T03670205  RH  039%=      5-min Rain = 0
KRO1 121739Z 14011KT 37/21 A2994 RMK A01 T03680206  RH  039%=      5-min Rain = 0
KRO1 121740Z 16012KT 37/21 A2994 RMK A01 T03670207  RH  039%=      5-min Rain = 0
KRO1 121741Z 17010KT 37/20 A2994 RMK A01 T03680204  RH  039%=      5-min Rain = 0
KRO1 121742Z 17009KT 37/20 A2994 RMK A01 T03670203  RH  039%=      5-min Rain = 0
KRO1 121743Z 16006KT 36/20 A2994 RMK A01 T03630204  RH  040%=      5-min Rain = 0
KRO1 121744Z 17008KT 36/21 A2994 RMK A01 T03640207  RH  040%=      5-min Rain = 0
KRO1 121745Z 18009KT 37/20 A2994 RMK A01 T03670203  RH  038%=      5-min Rain = 0
KRO1 121746Z 17008KT 37/20 A2994 RMK A01 T03680202  RH  038%=      5-min Rain = 0
KRO1 121747Z 17009KT 37/20 A2994 RMK A01 T03690204  RH  038%=      5-min Rain = 0
KRO1 121748Z 17011KT 37/20 A2994 RMK A01 T03740201  RH  037%=      5-min Rain = 0
KRO1 121749Z 15010KT 37/20 A2994 RMK A01 T03730201  RH  037%=      5-min Rain = 0
KRO1 121750Z 15008KT 37/20 A2994 RMK A01 T03700203  RH  038%=      5-min Rain = 0
KRO1 121751Z 16009KT 37/20 A2994 RMK A01 T03710199  RH  037%=      5-min Rain = 0
KRO1 121752Z 16010KT 37/20 A2994 RMK A01 T03710199  RH  037%=      5-min Rain = 0
KRO1 121753Z 14009KT 37/20 A2994 RMK A01 T03690200  RH  038%=      5-min Rain = 0
KRO1 121754Z 13012KT 37/20 A2994 RMK A01 T03700199  RH  037%=      5-min Rain = 0
KRO1 121755Z 13012KT 37/20 A2994 RMK A01 T03690201  RH  037%=      5-min Rain = 0
KRO1 121756Z 15012KT 37/20 A2994 RMK A01 T03680196  RH  037%=      5-min Rain = 0
KRO1 121757Z 14013KT 37/19 A2994 RMK A01 T03690194  RH  036%=      5-min Rain = 0
KRO1 121758Z 14010KT 37/20 A2994 RMK A01 T03690195  RH  036%=      5-min Rain = 0
KRO1 121759Z 15011KT 37/19 A2994 RMK A01 T03690193  RH  036%=      5-min Rain = 0
KRO1 121800Z 15010KT 37/19 A2994 RMK A01 T03700190  RH  035%=      5-min Rain = 0
KRO1 121801Z 13007KT 37/19 A2994 RMK A01 T03720187  RH  034%=      5-min Rain = 0
KRO1 121802Z 12007KT 37/19 A2994 RMK A01 T03730186  RH  034%=      5-min Rain = 0
KRO1 121803Z 13006KT 37/19 A2994 RMK A01 T03730188  RH  034%=      5-min Rain = 0
KRO1 121804Z 13009KT 37/19 A2994 RMK A01 T03720190  RH  035%=      5-min Rain = 0
KRO1 121805Z 13009KT 37/20 A2994 RMK A01 T03700195  RH  036%=      5-min Rain = 0
KRO1 121806Z 15012KT 37/20 A2994 RMK A01 T03710199  RH  037%=      5-min Rain = 0
KRO1 121807Z 15012KT 38/20 A2994 RMK A01 T03750200  RH  036%=      5-min Rain = 0
KRO1 121808Z 14009KT 38/20 A2994 RMK A01 T03760199  RH  036%=      5-min Rain = 0
KRO1 121809Z 13011KT 38/20 A2993 RMK A01 T03770197  RH  035%=      5-min Rain = 0
KRO1 121810Z 16012KT 38/20 A2994 RMK A01 T03770197  RH  035%=      5-min Rain = 0
KRO1 121811Z 16009KT 38/20 A2994 RMK A01 T03750196  RH  035%=      5-min Rain = 0
KRO1 121812Z 16012KT 38/19 A2994 RMK A01 T03760194  RH  035%=      5-min Rain = 0
KRO1 121813Z 17011KT 38/19 A2994 RMK A01 T03750191  RH  034%=      5-min Rain = 0
KRO1 121814Z 17010KT 37/19 A2994 RMK A01 T03720190  RH  035%=      5-min Rain = 0
KRO1 121815Z 16007KT 37/19 A2994 RMK A01 T03710190  RH  035%=      5-min Rain = 0
KRO1 121816Z 16005KT 37/19 A2994 RMK A01 T03710187  RH  034%=      5-min Rain = 0
KRO1 121817Z 17003KT 37/19 A2993 RMK A01 T03700188  RH  034%=      5-min Rain = 0
KRO1 121818Z 21007KT 37/19 A2993 RMK A01 T03730188  RH  034%=      5-min Rain = 0
KRO1 121819Z 21006KT 38/19 A2993 RMK A01 T03750189  RH  034%=      5-min Rain = 0
KRO1 121820Z 21007KT 38/19 A2993 RMK A01 T03760193  RH  034%=      5-min Rain = 0
KRO1 121821Z 20005KT 38/19 A2993 RMK A01 T03770191  RH  034%=      5-min Rain = 0
KRO1 121822Z 19004KT 38/19 A2993 RMK A01 T03770193  RH  034%=      5-min Rain = 0
KRO1 121823Z 17007KT 38/19 A2993 RMK A01 T03770192  RH  034%=      5-min Rain = 0
KRO1 121824Z 14009KT 38/20 A2993 RMK A01 T03790198  RH  035%=      5-min Rain = 0
KRO1 121825Z 13006KT 38/20 A2993 RMK A01 T03800197  RH  035%=      5-min Rain = 0
KRO1 121826Z 14005KT 38/20 A2993 RMK A01 T03790197  RH  035%=      5-min Rain = 0
KRO1 121827Z 15010KT 38/20 A2993 RMK A01 T03780198  RH  035%=      5-min Rain = 0
KRO1 121828Z 15008KT 38/20 A2993 RMK A01 T03800196  RH  034%=      5-min Rain = 0
KRO1 121829Z 16011KT 38/20 A2993 RMK A01 T03820199  RH  035%=      5-min Rain = 0
KRO1 121830Z 17009KT 38/20 A2993 RMK A01 T03820197  RH  034%=      5-min Rain = 0
KRO1 121831Z 19009KT 38/20 A2993 RMK A01 T03800196  RH  034%=      5-min Rain = 0
KRO1 121832Z 21010KT 38/19 A2993 RMK A01 T03800193  RH  034%=      5-min Rain = 0
KRO1 121833Z 20009G14KT 38/19 A2993 RMK A01 T03810191  RH  033%=      5-min Rain = 0
KRO1 121834Z 20004KT 38/19 A2993 RMK A01 T03790190  RH  033%=      5-min Rain = 0
KRO1 121835Z 17010G15KT 38/19 A2993 RMK A01 T03810192  RH  033%=      5-min Rain = 0
KRO1 121836Z 16013KT 38/19 A2993 RMK A01 T03820193  RH  033%=      5-min Rain = 0
KRO1 121837Z 15012KT 38/19 A2993 RMK A01 T03830191  RH  033%=      5-min Rain = 0
KRO1 121838Z 13010KT 38/19 A2992 RMK A01 T03810190  RH  033%=      5-min Rain = 0
KRO1 121839Z 16009KT 38/19 A2992 RMK A01 T03780191  RH  034%=      5-min Rain = 0
KRO1 121840Z 18006KT 38/19 A2992 RMK A01 T03790189  RH  033%=      5-min Rain = 0
KRO1 121841Z 16011KT 38/19 A2992 RMK A01 T03780187  RH  033%=      5-min Rain = 0
KRO1 121842Z 13011KT 38/19 A2992 RMK A01 T03820189  RH  033%=      5-min Rain = 0
KRO1 121843Z 13009KT 38/19 A2992 RMK A01 T03810188  RH  033%=      5-min Rain = 0
KRO1 121844Z 14011KT 38/19 A2992 RMK A01 T03810188  RH  032%=      5-min Rain = 0
KRO1 121845Z 14008KT 38/19 A2992 RMK A01 T03820185  RH  032%=      5-min Rain = 0
KRO1 121846Z 16010KT 38/19 A2992 RMK A01 T03830185  RH  032%=      5-min Rain = 0
KRO1 121847Z 15010KT 39/18 A2992 RMK A01 T03850180  RH  030%=      5-min Rain = 0
KRO1 121848Z 15009KT 39/19 A2992 RMK A01 T03860188  RH  032%=      5-min Rain = 0
KRO1 121849Z 15011KT 39/19 A2992 RMK A01 T03860186  RH  031%=      5-min Rain = 0
KRO1 121850Z 15009KT 39/18 A2992 RMK A01 T03850182  RH  031%=      5-min Rain = 0
KRO1 121851Z 18009KT 38/18 A2992 RMK A01 T03820181  RH  031%=      5-min Rain = 0
KRO1 121852Z 20009KT 38/18 A2992 RMK A01 T03830177  RH  030%=      5-min Rain = 0
KRO1 121853Z 18007KT 38/18 A2992 RMK A01 T03830180  RH  031%=      5-min Rain = 0
KRO1 121854Z 19005KT 38/18 A2992 RMK A01 T03830179  RH  030%=      5-min Rain = 0
KRO1 121855Z 15004KT 38/18 A2992 RMK A01 T03820179  RH  031%=      5-min Rain = 0
KRO1 121856Z 11008KT 38/18 A2992 RMK A01 T03830183  RH  031%=      5-min Rain = 0
KRO1 121857Z 16012KT 38/19 A2992 RMK A01 T03840190  RH  033%=      5-min Rain = 0
KRO1 121858Z 15010KT 39/19 A2992 RMK A01 T03870189  RH  032%=      5-min Rain = 0
KRO1 121859Z 13012KT 39/18 A2992 RMK A01 T03890184  RH  030%=      5-min Rain = 0
KRO1 121900Z 11010KT 39/18 A2992 RMK A01 T03850182  RH  031%=      5-min Rain = 0
KRO1 121901Z 11012KT 38/17 A2992 RMK A01 T03820174  RH  030%=      5-min Rain = 0
KRO1 121902Z 13012G17KT 38/17 A2992 RMK A01 T03810170  RH  029%=      5-min Rain = 0
KRO1 121903Z 12007KT 38/17 A2992 RMK A01 T03830171  RH  029%=      5-min Rain = 0
KRO1 121904Z 13006KT 38/17 A2992 RMK A01 T03830169  RH  029%=      5-min Rain = 0
KRO1 121905Z 11006KT 39/17 A2992 RMK A01 T03860170  RH  028%=      5-min Rain = 0
KRO1 121906Z 13008KT 39/16 A2992 RMK A01 T03880164  RH  027%=      5-min Rain = 0
KRO1 121907Z 15012KT 39/17 A2992 RMK A01 T03880172  RH  028%=      5-min Rain = 0
KRO1 121908Z 14008KT 39/17 A2992 RMK A01 T03870170  RH  028%=      5-min Rain = 0
KRO1 121909Z 13007KT 38/17 A2992 RMK A01 T03840170  RH  029%=      5-min Rain = 0
KRO1 121910Z 15010KT 38/17 A2992 RMK A01 T03830174  RH  030%=      5-min Rain = 0
KRO1 121911Z 15008KT 39/17 A2992 RMK A01 T03850171  RH  028%=      5-min Rain = 0
KRO1 121912Z 14007KT 39/17 A2992 RMK A01 T03890166  RH  027%=      5-min Rain = 0
KRO1 121913Z 15004KT 39/16 A2991 RMK A01 T03900161  RH  026%=      5-min Rain = 0
KRO1 121914Z 15008KT 39/17 A2991 RMK A01 T03900167  RH  027%=      5-min Rain = 0
KRO1 121915Z 14011KT 39/17 A2991 RMK A01 T03920172  RH  028%=      5-min Rain = 0
KRO1 121916Z 13010KT 39/15 A2991 RMK A01 T03930153  RH  024%=      5-min Rain = 0
KRO1 121917Z 13008KT 39/15 A2991 RMK A01 T03900146  RH  024%=      5-min Rain = 0
KRO1 121918Z 13008KT 39/15 A2991 RMK A01 T03890149  RH  024%=      5-min Rain = 0
KRO1 121919Z 13012KT 39/16 A2991 RMK A01 T03940162  RH  026%=      5-min Rain = 0
KRO1 121920Z 15011KT 40/17 A2991 RMK A01 T03950171  RH  027%=      5-min Rain = 0
KRO1 121921Z 15009KT 39/17 A2991 RMK A01 T03940166  RH  026%=      5-min Rain = 0
KRO1 121922Z 14013KT 39/17 A2991 RMK A01 T03910166  RH  027%=      5-min Rain = 0
KRO1 121923Z 13009KT 39/16 A2991 RMK A01 T03870164  RH  027%=      5-min Rain = 0
KRO1 121924Z 12008KT 39/17 A2991 RMK A01 T03890168  RH  028%=      5-min Rain = 0
KRO1 121925Z 13010KT 39/17 A2991 RMK A01 T03910168  RH  027%=      5-min Rain = 0
KRO1 121926Z 14011KT 39/17 A2991 RMK A01 T03920169  RH  027%=      5-min Rain = 0
KRO1 121927Z 12010KT 39/17 A2991 RMK A01 T03920168  RH  027%=      5-min Rain = 0
KRO1 121928Z 12008KT 39/17 A2991 RMK A01 T03900166  RH  027%=      5-min Rain = 0
KRO1 121929Z 12007KT 39/17 A2991 RMK A01 T03890166  RH  027%=      5-min Rain = 0
KRO1 121930Z 12009KT 39/17 A2991 RMK A01 T03910167  RH  027%=      5-min Rain = 0
KRO1 121931Z 12005KT 39/16 A2991 RMK A01 T03860164  RH  027%=      5-min Rain = 0
KRO1 121932Z 14009KT 39/17 A299 RMK A01 T03860169  RH  028%=      5-min Rain = 0
KRO1 121933Z 15010KT 39/18 A299 RMK A01 T03910175  RH  028%=      5-min Rain = 0
KRO1 121934Z 15013KT 39/18 A299 RMK A01 T03930177  RH  028%=      5-min Rain = 0
KRO1 121935Z 14011KT 39/17 A299 RMK A01 T03930173  RH  028%=      5-min Rain = 0
KRO1 121936Z 15016KT 39/17 A299 RMK A01 T03920171  RH  028%=      5-min Rain = 0
KRO1 121937Z 15013KT 39/17 A299 RMK A01 T03900170  RH  028%=      5-min Rain = 0
KRO1 121938Z 13013KT 39/17 A299 RMK A01 T03890169  RH  028%=      5-min Rain = 0
KRO1 121939Z 14014KT 39/17 A299 RMK A01 T03880172  RH  028%=      5-min Rain = 0
KRO1 121940Z 13011KT 39/17 A299 RMK A01 T03890173  RH  028%=      5-min Rain = 0
KRO1 121941Z 14009KT 39/18 A299 RMK A01 T03890176  RH  029%=      5-min Rain = 0
KRO1 121942Z 14011KT 39/18 A299 RMK A01 T03910175  RH  028%=      5-min Rain = 0
KRO1 121943Z 14016KT 39/17 A299 RMK A01 T03920169  RH  027%=      5-min Rain = 0
KRO1 121944Z 13015KT 39/17 A299 RMK A01 T03920168  RH  027%=      5-min Rain = 0
KRO1 121945Z 14011KT 39/17 A299 RMK A01 T03920171  RH  028%=      5-min Rain = 0
KRO1 121946Z 14010KT 39/17 A299 RMK A01 T03920166  RH  027%=      5-min Rain = 0
KRO1 121947Z 15011KT 39/17 A299 RMK A01 T03920168  RH  027%=      5-min Rain = 0
KRO1 121948Z 12009KT 39/18 A299 RMK A01 T03920177  RH  029%=      5-min Rain = 0
KRO1 121949Z 14011KT 40/18 A299 RMK A01 T03970178  RH  028%=      5-min Rain = 0
KRO1 121950Z 14011KT 40/17 A299 RMK A01 T03980173  RH  027%=      5-min Rain = 0
KRO1 121951Z 15011KT 40/17 A299 RMK A01 T03970170  RH  027%=      5-min Rain = 0
KRO1 121952Z 15012KT 40/17 A299 RMK A01 T03970167  RH  026%=      5-min Rain = 0
KRO1 121953Z 15012KT 40/16 A2989 RMK A01 T03960159  RH  025%=      5-min Rain = 0
KRO1 121954Z 16014KT 40/16 A2989 RMK A01 T03950158  RH  025%=      5-min Rain = 0
KRO1 121955Z 16014KT 40/15 A2989 RMK A01 T03950151  RH  024%=      5-min Rain = 0
KRO1 121956Z 16010KT 40/15 A2989 RMK A01 T03950149  RH  023%=      5-min Rain = 0
KRO1 121957Z 15012KT 40/15 A2989 RMK A01 T03950148  RH  023%=      5-min Rain = 0
KRO1 121958Z 15013G20KT 40/15 A2989 RMK A01 T03950151  RH  024%=      5-min Rain = 0
KRO1 121959Z 15017KT 40/16 A2989 RMK A01 T03950163  RH  026%=      5-min Rain = 0
KRO1 122000Z 14013KT 39/17 A2989 RMK A01 T03930168  RH  027%=      5-min Rain = 0
KRO1 122001Z 16015KT 39/17 A2989 RMK A01 T03930171  RH  027%=      5-min Rain = 0
KRO1 122002Z 18014KT 39/17 A2989 RMK A01 T03930167  RH  027%=      5-min Rain = 0
KRO1 122003Z 18012KT 39/17 A2989 RMK A01 T03930167  RH  027%=      5-min Rain = 0
KRO1 122004Z 18007KT 39/17 A2989 RMK A01 T03930166  RH  027%=      5-min Rain = 0
KRO1 122005Z 20010KT 39/17 A2989 RMK A01 T03940167  RH  026%=      5-min Rain = 0
KRO1 122006Z 18012KT 40/17 A2989 RMK A01 T03950167  RH  026%=      5-min Rain = 0
KRO1 122007Z 17013KT 40/16 A2989 RMK A01 T03950163  RH  026%=      5-min Rain = 0
KRO1 122008Z 17014KT 39/16 A2989 RMK A01 T03940164  RH  026%=      5-min Rain = 0
KRO1 122009Z 17009G14KT 39/16 A2989 RMK A01 T03930161  RH  026%=      5-min Rain = 0
KRO1 122010Z 16007KT 39/16 A2989 RMK A01 T03910161  RH  026%=      5-min Rain = 0
KRO1 122011Z 18009KT 39/17 A2989 RMK A01 T03910168  RH  027%=      5-min Rain = 0
KRO1 122012Z 17010KT 39/18 A2988 RMK A01 T03920175  RH  028%=      5-min Rain = 0
KRO1 122013Z 13010KT 40/19 A2988 RMK A01 T03960186  RH  030%=      5-min Rain = 0
KRO1 122014Z 14011KT 40/19 A2988 RMK A01 T04000186  RH  029%=      5-min Rain = 0
KRO1 122015Z 15012KT 40/19 A2989 RMK A01 T04010185  RH  029%=      5-min Rain = 0
KRO1 122016Z 15014KT 40/18 A2989 RMK A01 T04020182  RH  028%=      5-min Rain = 0
KRO1 122017Z 15010KT 40/18 A2989 RMK A01 T04020183  RH  028%=      5-min Rain = 0
KRO1 122018Z 15007KT 40/18 A2988 RMK A01 T04030184  RH  028%=      5-min Rain = 0
KRO1 122019Z 16007G15KT 40/19 A2988 RMK A01 T04040187  RH  029%=      5-min Rain = 0
KRO1 122020Z 17015KT 40/18 A2988 RMK A01 T04040179  RH  027%=      5-min Rain = 0
KRO1 122021Z 17011KT 40/18 A2988 RMK A01 T03990175  RH  027%=      5-min Rain = 0
KRO1 122022Z 18012KT 40/18 A2988 RMK A01 T03960176  RH  028%=      5-min Rain = 0
KRO1 122023Z 19009KT 40/18 A2988 RMK A01 T03970177  RH  028%=      5-min Rain = 0
KRO1 122024Z 19008KT 40/18 A2988 RMK A01 T03970177  RH  028%=      5-min Rain = 0
KRO1 122025Z 17009KT 40/18 A2988 RMK A01 T03970178  RH  028%=      5-min Rain = 0
KRO1 122026Z 15012KT 40/18 A2988 RMK A01 T03970179  RH  028%=      5-min Rain = 0
KRO1 122027Z 14011KT 40/18 A2988 RMK A01 T03970179  RH  028%=      5-min Rain = 0
KRO1 122028Z 13012KT 40/18 A2988 RMK A01 T03970178  RH  028%=      5-min Rain = 0
KRO1 122029Z 14012KT 40/18 A2988 RMK A01 T03950177  RH  028%=      5-min Rain = 0
KRO1 122030Z 14014G19KT 40/18 A2988 RMK A01 T03950181  RH  029%=      5-min Rain = 0
KRO1 122031Z 15016KT 40/18 A2988 RMK A01 T03970179  RH  028%=      5-min Rain = 0
KRO1 122032Z 14015KT 40/18 A2988 RMK A01 T03980179  RH  028%=      5-min Rain = 0
KRO1 122033Z 14010KT 40/18 A2988 RMK A01 T03960177  RH  028%=      5-min Rain = 0
KRO1 122034Z 14010G15KT 40/18 A2988 RMK A01 T03950177  RH  028%=      5-min Rain = 0
KRO1 122035Z 13013KT 40/18 A2988 RMK A01 T03950183  RH  029%=      5-min Rain = 0
KRO1 122036Z 13017KT 40/18 A2988 RMK A01 T03950181  RH  029%=      5-min Rain = 0
KRO1 122037Z 15015KT 39/18 A2988 RMK A01 T03940180  RH  029%=      5-min Rain = 0
KRO1 122038Z 15012KT 39/18 A2988 RMK A01 T03930180  RH  029%=      5-min Rain = 0
KRO1 122039Z 15010KT 39/18 A2988 RMK A01 T03940181  RH  029%=      5-min Rain = 0
KRO1 122040Z 15011KT 40/18 A2988 RMK A01 T03950183  RH  029%=      5-min Rain = 0
KRO1 122041Z 15008KT 40/19 A2988 RMK A01 T03990186  RH  029%=      5-min Rain = 0
KRO1 122042Z 14012KT 40/19 A2988 RMK A01 T04030185  RH  028%=      5-min Rain = 0
KRO1 122043Z 15011KT 40/18 A2988 RMK A01 T04040182  RH  028%=      5-min Rain = 0
KRO1 122044Z 17009KT 40/18 A2988 RMK A01 T04010177  RH  027%=      5-min Rain = 0
KRO1 122045Z 15008KT 40/18 A2987 RMK A01 T03960177  RH  028%=      5-min Rain = 0
KRO1 122046Z 16011KT 40/18 A2987 RMK A01 T03980183  RH  029%=      5-min Rain = 0
KRO1 122047Z 16010KT 40/18 A2987 RMK A01 T04020182  RH  028%=      5-min Rain = 0
KRO1 122048Z 13009KT 40/18 A2987 RMK A01 T04010182  RH  028%=      5-min Rain = 0
KRO1 122049Z 12009KT 40/18 A2987 RMK A01 T03990183  RH  029%=      5-min Rain = 0
KRO1 122050Z 13011KT 40/18 A2987 RMK A01 T03990183  RH  029%=      5-min Rain = 0
KRO1 122051Z 14015KT 40/18 A2987 RMK A01 T03960183  RH  029%=      5-min Rain = 0
KRO1 122052Z 14011KT 40/18 A2987 RMK A01 T03950181  RH  029%=      5-min Rain = 0
KRO1 122053Z 15011KT 40/18 A2987 RMK A01 T03970182  RH  029%=      5-min Rain = 0
KRO1 122054Z 16009KT 40/18 A2987 RMK A01 T03970182  RH  029%=      5-min Rain = 0
KRO1 122055Z 13008KT 40/18 A2987 RMK A01 T04000181  RH  028%=      5-min Rain = 0
KRO1 122056Z 14010KT 40/18 A2987 RMK A01 T04010184  RH  028%=      5-min Rain = 0
KRO1 122057Z 14015KT 40/18 A2987 RMK A01 T04010182  RH  028%=      5-min Rain = 0
KRO1 122058Z 15013KT 40/18 A2987 RMK A01 T03980180  RH  028%=      5-min Rain = 0
KRO1 122059Z 15013KT 39/18 A2987 RMK A01 T03930177  RH  028%=      5-min Rain = 0
KRO1 122100Z 14010KT 39/18 A2987 RMK A01 T03900178  RH  029%=      5-min Rain = 0
KRO1 122101Z 15010KT 39/18 A2987 RMK A01 T03890180  RH  030%=      5-min Rain = 0
KRO1 122102Z 15012KT 39/18 A2987 RMK A01 T03880178  RH  029%=      5-min Rain = 0
KRO1 122103Z 15013KT 39/18 A2987 RMK A01 T03870179  RH  030%=      5-min Rain = 0
KRO1 122104Z 14013KT 39/18 A2987 RMK A01 T03860179  RH  030%=      5-min Rain = 0
KRO1 122105Z 14014KT 39/18 A2987 RMK A01 T03860179  RH  030%=      5-min Rain = 0
KRO1 122106Z 12012KT 39/18 A2986 RMK A01 T03880179  RH  030%=      5-min Rain = 0
KRO1 122107Z 14014KT 39/18 A2986 RMK A01 T03920181  RH  029%=      5-min Rain = 0
KRO1 122108Z 17013KT 40/18 A2986 RMK A01 T03970178  RH  028%=      5-min Rain = 0
KRO1 122109Z 16013KT 40/18 A2986 RMK A01 T04000177  RH  027%=      5-min Rain = 0
KRO1 122110Z 17015KT 40/18 A2986 RMK A01 T04000179  RH  028%=      5-min Rain = 0
KRO1 122111Z 16011G16KT 40/18 A2986 RMK A01 T03990179  RH  028%=      5-min Rain = 0
KRO1 122112Z 16012KT 40/18 A2986 RMK A01 T04000181  RH  028%=      5-min Rain = 0
KRO1 122113Z 17013KT 40/18 A2986 RMK A01 T04000180  RH  028%=      5-min Rain = 0
KRO1 122114Z 17013KT 40/18 A2986 RMK A01 T04000180  RH  028%=      5-min Rain = 0
KRO1 122115Z 17008KT 40/18 A2986 RMK A01 T03990177  RH  028%=      5-min Rain = 0
KRO1 122116Z 16006KT 40/18 A2986 RMK A01 T03980178  RH  028%=      5-min Rain = 0
KRO1 122117Z 15010KT 40/18 A2986 RMK A01 T04000181  RH  028%=      5-min Rain = 0
KRO1 122118Z 16013KT 40/18 A2986 RMK A01 T04010179  RH  028%=      5-min Rain = 0
KRO1 122119Z 16012KT 40/18 A2986 RMK A01 T04000178  RH  028%=      5-min Rain = 0
KRO1 122120Z 17012KT 40/18 A2986 RMK A01 T03980178  RH  028%=      5-min Rain = 0
KRO1 122121Z 17007KT 40/17 A2986 RMK A01 T03990172  RH  027%=      5-min Rain = 0
KRO1 122122Z 16007KT 40/17 A2986 RMK A01 T03980173  RH  027%=      5-min Rain = 0
KRO1 122123Z 16007KT 40/18 A2986 RMK A01 T03980175  RH  027%=      5-min Rain = 0
KRO1 122124Z 18009KT 40/18 A2986 RMK A01 T04000179  RH  028%=      5-min Rain = 0
KRO1 122125Z 15011KT 40/18 A2986 RMK A01 T04020179  RH  027%=      5-min Rain = 0
KRO1 122126Z 14011KT 40/18 A2986 RMK A01 T04030177  RH  027%=      5-min Rain = 0
KRO1 122127Z 13008KT 40/18 A2986 RMK A01 T04010181  RH  028%=      5-min Rain = 0
KRO1 122128Z 13010KT 40/18 A2986 RMK A01 T04020179  RH  028%=      5-min Rain = 0
KRO1 122129Z 14009KT 40/18 A2986 RMK A01 T04020179  RH  027%=      5-min Rain = 0
KRO1 122130Z 14008KT 40/18 A2985 RMK A01 T04030180  RH  028%=      5-min Rain = 0
KRO1 122131Z 15009KT 40/17 A2985 RMK A01 T04020174  RH  027%=      5-min Rain = 0
KRO1 122132Z 13010G15KT 40/18 A2985 RMK A01 T04000179  RH  028%=      5-min Rain = 0
KRO1 122133Z 14015KT 40/18 A2985 RMK A01 T03990180  RH  028%=      5-min Rain = 0
KRO1 122134Z 14013KT 40/18 A2985 RMK A01 T03980182  RH  029%=      5-min Rain = 0
KRO1 122135Z 14014KT 40/18 A2985 RMK A01 T03990179  RH  028%=      5-min Rain = 0
KRO1 122136Z 14011KT 40/17 A2985 RMK A01 T03980174  RH  027%=      5-min Rain = 0
KRO1 122137Z 16012KT 40/18 A2985 RMK A01 T03970177  RH  028%=      5-min Rain = 0
KRO1 122138Z 15011KT 40/18 A2985 RMK A01 T03980176  RH  027%=      5-min Rain = 0
KRO1 122139Z 12012KT 40/18 A2985 RMK A01 T04000183  RH  029%=      5-min Rain = 0
KRO1 122140Z 12009G14KT 40/18 A2985 RMK A01 T03990175  RH  027%=      5-min Rain = 0
KRO1 122141Z 14010KT 40/18 A2985 RMK A01 T03960179  RH  028%=      5-min Rain = 0
KRO1 122142Z 14010KT 40/18 A2985 RMK A01 T03990180  RH  028%=      5-min Rain = 0
KRO1 122143Z 15011KT 40/18 A2985 RMK A01 T04030180  RH  028%=      5-min Rain = 0
KRO1 122144Z 17011KT 40/18 A2985 RMK A01 T04020180  RH  028%=      5-min Rain = 0
KRO1 122145Z 17012KT 40/18 A2985 RMK A01 T03980177  RH  028%=      5-min Rain = 0
KRO1 122146Z 18014KT 39/18 A2985 RMK A01 T03930176  RH  028%=      5-min Rain = 0
KRO1 122147Z 17012KT 39/18 A2985 RMK A01 T03900177  RH  029%=      5-min Rain = 0
KRO1 122148Z 16011G17KT 39/18 A2985 RMK A01 T03900178  RH  029%=      5-min Rain = 0
KRO1 122149Z 15012KT 39/18 A2985 RMK A01 T03900177  RH  029%=      5-min Rain = 0
KRO1 122150Z 15011KT 39/18 A2985 RMK A01 T03900176  RH  029%=      5-min Rain = 0
KRO1 122151Z 14009KT 39/18 A2985 RMK A01 T03920176  RH  028%=      5-min Rain = 0
KRO1 122152Z 16009KT 40/18 A2985 RMK A01 T03970179  RH  028%=      5-min Rain = 0
KRO1 122153Z 16013KT 40/18 A2984 RMK A01 T04000177  RH  027%=      5-min Rain = 0
KRO1 122154Z 16016G21KT 40/18 A2984 RMK A01 T04010176  RH  027%=      5-min Rain = 0
KRO1 122155Z 17014G21KT 40/18 A2984 RMK A01 T03980178  RH  028%=      5-min Rain = 0
KRO1 122156Z 16011KT 40/18 A2984 RMK A01 T03990180  RH  028%=      5-min Rain = 0
KRO1 122157Z 15012KT 40/18 A2984 RMK A01 T04000179  RH  028%=      5-min Rain = 0
KRO1 122158Z 16015KT 40/18 A2984 RMK A01 T04010179  RH  028%=      5-min Rain = 0
KRO1 122159Z 15012KT 40/17 A2984 RMK A01 T03990174  RH  027%=      5-min Rain = 0
KRO1 122200Z 17014G20KT 40/18 A2984 RMK A01 T03980175  RH  027%=      5-min Rain = 0
KRO1 122201Z 15009G14KT 40/17 A2984 RMK A01 T03970172  RH  027%=      5-min Rain = 0
KRO1 122202Z 14008KT 40/17 A2984 RMK A01 T03960173  RH  027%=      5-min Rain = 0
KRO1 122203Z 15007KT 40/18 A2984 RMK A01 T03960176  RH  028%=      5-min Rain = 0
KRO1 122204Z 15006KT 40/18 A2984 RMK A01 T03960178  RH  028%=      5-min Rain = 0
KRO1 122205Z 14009KT 40/18 A2984 RMK A01 T04000177  RH  028%=      5-min Rain = 0
KRO1 122206Z 14010KT 40/18 A2984 RMK A01 T04020175  RH  027%=      5-min Rain = 0
KRO1 122207Z 17010G15KT 40/17 A2984 RMK A01 T04010174  RH  027%=      5-min Rain = 0
KRO1 122208Z 15009KT 40/17 A2984 RMK A01 T04000173  RH  027%=      5-min Rain = 0
KRO1 122209Z 15009KT 40/18 A2984 RMK A01 T03990175  RH  027%=      5-min Rain = 0
KRO1 122210Z 13009KT 40/18 A2984 RMK A01 T03990176  RH  027%=      5-min Rain = 0
KRO1 122211Z 12008KT 40/18 A2984 RMK A01 T03990180  RH  028%=      5-min Rain = 0
KRO1 122212Z 11012G17KT 40/18 A2984 RMK A01 T03980179  RH  028%=      5-min Rain = 0
KRO1 122213Z 11009KT 40/18 A2984 RMK A01 T03970178  RH  028%=      5-min Rain = 0
KRO1 122214Z 12010KT 40/18 A2984 RMK A01 T03960178  RH  028%=      5-min Rain = 0
KRO1 122215Z 14014KT 40/18 A2984 RMK A01 T03950177  RH  028%=      5-min Rain = 0
KRO1 122216Z 13014KT 39/17 A2984 RMK A01 T03930173  RH  028%=      5-min Rain = 0
KRO1 122217Z 14008KT 39/17 A2984 RMK A01 T03930173  RH  028%=      5-min Rain = 0
KRO1 122218Z 17010KT 40/18 A2984 RMK A01 T03960175  RH  028%=      5-min Rain = 0
KRO1 122219Z 17012KT 40/17 A2984 RMK A01 T03990173  RH  027%=      5-min Rain = 0
KRO1 122220Z 17010KT 40/17 A2984 RMK A01 T04010173  RH  027%=      5-min Rain = 0
KRO1 122221Z 15014KT 40/18 A2984 RMK A01 T04040176  RH  027%=      5-min Rain = 0
KRO1 122222Z 16012KT 40/17 A2984 RMK A01 T04030174  RH  026%=      5-min Rain = 0
KRO1 122223Z 13013KT 40/18 A2984 RMK A01 T04010176  RH  027%=      5-min Rain = 0
KRO1 122224Z 12015KT 40/18 A2984 RMK A01 T04000178  RH  028%=      5-min Rain = 0
KRO1 122225Z 13017G22KT 40/18 A2984 RMK A01 T03970175  RH  028%=      5-min Rain = 0
KRO1 122226Z 15016KT 40/17 A2984 RMK A01 T03960170  RH  027%=      5-min Rain = 0
KRO1 122227Z 15013KT 40/17 A2983 RMK A01 T03960170  RH  027%=      5-min Rain = 0
KRO1 122228Z 14012KT 40/17 A2984 RMK A01 T03970173  RH  027%=      5-min Rain = 0
KRO1 122229Z 13011KT 40/18 A2983 RMK A01 T03980177  RH  028%=      5-min Rain = 0
KRO1 122230Z 12010KT 40/18 A2983 RMK A01 T03980180  RH  028%=      5-min Rain = 0
KRO1 122231Z 14011KT 40/18 A2983 RMK A01 T03980180  RH  028%=      5-min Rain = 0
KRO1 122232Z 15008KT 40/18 A2983 RMK A01 T03980180  RH  028%=      5-min Rain = 0
KRO1 122233Z 16012G18KT 40/18 A2983 RMK A01 T04000176  RH  027%=      5-min Rain = 0
KRO1 122234Z 15013KT 40/17 A2983 RMK A01 T04020171  RH  026%=      5-min Rain = 0
KRO1 122235Z 14012KT 40/18 A2983 RMK A01 T04000175  RH  027%=      5-min Rain = 0
KRO1 122236Z 14010KT 40/17 A2983 RMK A01 T03990174  RH  027%=      5-min Rain = 0
KRO1 122237Z 15013KT 40/17 A2983 RMK A01 T04000174  RH  027%=      5-min Rain = 0
KRO1 122238Z 14014KT 40/17 A2983 RMK A01 T04000174  RH  027%=      5-min Rain = 0
KRO1 122239Z 13016G21KT 40/18 A2983 RMK A01 T03980179  RH  028%=      5-min Rain = 0
KRO1 122240Z 14016KT 40/18 A2983 RMK A01 T03960176  RH  028%=      5-min Rain = 0
KRO1 122241Z 13014KT 40/18 A2983 RMK A01 T03950181  RH  029%=      5-min Rain = 0
KRO1 122242Z 12015KT 39/18 A2983 RMK A01 T03940181  RH  029%=      5-min Rain = 0
KRO1 122243Z 13012KT 39/18 A2983 RMK A01 T03920183  RH  030%=      5-min Rain = 0
KRO1 122244Z 13015KT 39/18 A2983 RMK A01 T03930182  RH  029%=      5-min Rain = 0
KRO1 122245Z 13014KT 39/18 A2983 RMK A01 T03930178  RH  029%=      5-min Rain = 0
KRO1 122246Z 13010KT 39/18 A2983 RMK A01 T03930177  RH  028%=      5-min Rain = 0
KRO1 122247Z 14009KT 39/18 A2983 RMK A01 T03930178  RH  029%=      5-min Rain = 0
KRO1 122248Z 15011KT 40/18 A2983 RMK A01 T03950176  RH  028%=      5-min Rain = 0
KRO1 122249Z 14010KT 40/18 A2983 RMK A01 T03950180  RH  029%=      5-min Rain = 0
KRO1 122250Z 14015KT 40/18 A2983 RMK A01 T03970178  RH  028%=      5-min Rain = 0
KRO1 122251Z 15014KT 40/18 A2983 RMK A01 T03970176  RH  028%=      5-min Rain = 0
KRO1 122252Z 15012KT 40/18 A2983 RMK A01 T03960177  RH  028%=      5-min Rain = 0
KRO1 122253Z 17012KT 40/18 A2983 RMK A01 T03960176  RH  028%=      5-min Rain = 0
KRO1 122254Z 17011KT 40/17 A2983 RMK A01 T03960173  RH  027%=      5-min Rain = 0
KRO1 122255Z 16010KT 40/17 A2983 RMK A01 T03950173  RH  028%=      5-min Rain = 0
KRO1 122256Z 14009KT 40/18 A2983 RMK A01 T03950176  RH  028%=      5-min Rain = 0
KRO1 122257Z 15008KT 40/18 A2983 RMK A01 T03960176  RH  028%=      5-min Rain = 0
KRO1 122258Z 14010G15KT 40/18 A2983 RMK A01 T03960178  RH  028%=      5-min Rain = 0
KRO1 122259Z 16016KT 40/17 A2983 RMK A01 T03960174  RH  028%=      5-min Rain = 0
KRO1 122300Z 15015KT 40/17 A2983 RMK A01 T03960170  RH  027%=      5-min Rain = 0
KRO1 122301Z 17015KT 40/17 A2983 RMK A01 T03950170  RH  027%=      5-min Rain = 0
KRO1 122302Z 16011KT 39/17 A2983 RMK A01 T03940172  RH  027%=      5-min Rain = 0
KRO1 122303Z 15013KT 40/17 A2983 RMK A01 T03950174  RH  028%=      5-min Rain = 0
KRO1 122304Z 15016KT 40/17 A2982 RMK A01 T03960173  RH  027%=      5-min Rain = 0
KRO1 122305Z 14014KT 40/18 A2983 RMK A01 T03950176  RH  028%=      5-min Rain = 0
KRO1 122306Z 14014KT 40/18 A2982 RMK A01 T03950176  RH  028%=      5-min Rain = 0
KRO1 122307Z 13011KT 39/18 A2982 RMK A01 T03930175  RH  028%=      5-min Rain = 0
KRO1 122308Z 14012KT 39/18 A2982 RMK A01 T03930176  RH  028%=      5-min Rain = 0
KRO1 122309Z 14013KT 39/18 A2982 RMK A01 T03930175  RH  028%=      5-min Rain = 0
KRO1 122310Z 13013KT 39/18 A2982 RMK A01 T03930175  RH  028%=      5-min Rain = 0
KRO1 122311Z 13011KT 39/18 A2982 RMK A01 T03920178  RH  029%=      5-min Rain = 0
KRO1 122312Z 14013KT 39/18 A2982 RMK A01 T03930177  RH  029%=      5-min Rain = 0
KRO1 122313Z 14013KT 39/18 A2982 RMK A01 T03920176  RH  028%=      5-min Rain = 0
KRO1 122314Z 14012G17KT 39/17 A2982 RMK A01 T03930173  RH  028%=      5-min Rain = 0
KRO1 122315Z 14011KT 39/17 A2982 RMK A01 T03930174  RH  028%=      5-min Rain = 0
KRO1 122316Z 14015KT 39/18 A2982 RMK A01 T03920176  RH  028%=      5-min Rain = 0
KRO1 122317Z 13013KT 39/18 A2982 RMK A01 T03920178  RH  029%=      5-min Rain = 0
KRO1 122318Z 13013KT 39/18 A2982 RMK A01 T03920175  RH  028%=      5-min Rain = 0
KRO1 122319Z 13016KT 39/18 A2982 RMK A01 T03900175  RH  029%=      5-min Rain = 0
KRO1 122320Z 13014KT 39/17 A2982 RMK A01 T03890174  RH  029%=      5-min Rain = 0
KRO1 122321Z 12013KT 39/18 A2982 RMK A01 T03890177  RH  029%=      5-min Rain = 0
KRO1 122322Z 13015KT 39/18 A2982 RMK A01 T03880175  RH  029%=      5-min Rain = 0
KRO1 122323Z 14015KT 39/18 A2982 RMK A01 T03880176  RH  029%=      5-min Rain = 0
KRO1 122324Z 13015KT 39/18 A2982 RMK A01 T03880176  RH  029%=      5-min Rain = 0
KRO1 122325Z 13015KT 39/17 A2982 RMK A01 T03880174  RH  029%=      5-min Rain = 0
KRO1 122326Z 13016KT 39/18 A2982 RMK A01 T03870175  RH  029%=      5-min Rain = 0
KRO1 122327Z 12014KT 39/18 A2982 RMK A01 T03870175  RH  029%=      5-min Rain = 0
KRO1 122328Z 13014KT 39/18 A2982 RMK A01 T03860175  RH  029%=      5-min Rain = 0
KRO1 122329Z 13011KT 39/18 A2982 RMK A01 T03860176  RH  029%=      5-min Rain = 0
KRO1 122330Z 13012KT 39/18 A2982 RMK A01 T03850176  RH  030%=      5-min Rain = 0
KRO1 122331Z 13012G17KT 39/18 A2982 RMK A01 T03860176  RH  029%=      5-min Rain = 0
KRO1 122332Z 12012KT 39/18 A2982 RMK A01 T03850176  RH  029%=      5-min Rain = 0
KRO1 122333Z 13013KT 39/18 A2982 RMK A01 T03850177  RH  030%=      5-min Rain = 0
KRO1 122334Z 13014KT 39/18 A2982 RMK A01 T03850176  RH  030%=      5-min Rain = 0
KRO1 122335Z 13012KT 39/18 A2982 RMK A01 T03850175  RH  029%=      5-min Rain = 0
KRO1 122336Z 13014KT 39/18 A2982 RMK A01 T03850177  RH  030%=      5-min Rain = 0
KRO1 122337Z 13016KT 39/18 A2982 RMK A01 T03850175  RH  029%=      5-min Rain = 0
KRO1 122338Z 14014KT 39/17 A2982 RMK A01 T03850174  RH  029%=      5-min Rain = 0
KRO1 122339Z 14012KT 39/17 A2982 RMK A01 T03850173  RH  029%=      5-min Rain = 0
KRO1 122340Z 13013KT 39/18 A2981 RMK A01 T03850176  RH  029%=      5-min Rain = 0
KRO1 122341Z 13014KT 39/18 A2981 RMK A01 T03850176  RH  030%=      5-min Rain = 0
KRO1 122342Z 13011KT 39/18 A2981 RMK A01 T03850177  RH  030%=      5-min Rain = 0
KRO1 122343Z 12012KT 38/18 A2981 RMK A01 T03840177  RH  030%=      5-min Rain = 0
KRO1 122344Z 13015KT 38/18 A2981 RMK A01 T03830176  RH  030%=      5-min Rain = 0
KRO1 122345Z 13013KT 38/18 A2981 RMK A01 T03830175  RH  030%=      5-min Rain = 0
KRO1 122346Z 13013KT 38/18 A2981 RMK A01 T03830177  RH  030%=      5-min Rain = 0
KRO1 122347Z 13015KT 38/18 A2981 RMK A01 T03820177  RH  030%=      5-min Rain = 0
KRO1 122348Z 13017G22KT 38/18 A2981 RMK A01 T03820175  RH  030%=      5-min Rain = 0
KRO1 122349Z 14018KT 38/17 A2981 RMK A01 T03820174  RH  030%=      5-min Rain = 0
KRO1 122350Z 14017KT 38/17 A2981 RMK A01 T03820173  RH  029%=      5-min Rain = 0
KRO1 122351Z 14015KT 38/17 A2981 RMK A01 T03830174  RH  030%=      5-min Rain = 0
KRO1 122352Z 14016KT 38/17 A2981 RMK A01 T03830172  RH  029%=      5-min Rain = 0
KRO1 122353Z 13011KT 38/18 A2981 RMK A01 T03830176  RH  030%=      5-min Rain = 0
KRO1 122354Z 13014KT 38/18 A2981 RMK A01 T03830176  RH  030%=      5-min Rain = 0
KRO1 122355Z 12015KT 38/18 A2981 RMK A01 T03830175  RH  030%=      5-min Rain = 0
KRO1 122356Z 13015KT 38/18 A2981 RMK A01 T03820175  RH  030%=      5-min Rain = 0
KRO1 122357Z 13013KT 38/18 A2981 RMK A01 T03820175  RH  030%=      5-min Rain = 0
KRO1 122358Z 13013KT 38/18 A2981 RMK A01 T03810176  RH  030%=      5-min Rain = 0
KRO1 122359Z 13013KT 38/18 A2981 RMK A01 T03810175  RH  030%=      5-min Rain = 0
KRO1 130000Z 13014KT 38/18 A2981 RMK A01 T03800176  RH  030%=      5-min Rain = 0
KRO1 130001Z 13014KT 38/18 A2981 RMK A01 T03800176  RH  030%=      5-min Rain = 0
KRO1 130002Z 13016KT 38/18 A2981 RMK A01 T03800175  RH  030%=      5-min Rain = 0
KRO1 130003Z 13016KT 38/17 A2981 RMK A01 T03800173  RH  030%=      5-min Rain = 0
KRO1 130004Z 14015KT 38/17 A2981 RMK A01 T03800174  RH  030%=      5-min Rain = 0
KRO1 130005Z 14014KT 38/17 A2981 RMK A01 T03800174  RH  030%=      5-min Rain = 0
KRO1 130006Z 14013KT 38/18 A2981 RMK A01 T03800176  RH  030%=      5-min Rain = 0
KRO1 130007Z 14012KT 38/18 A2981 RMK A01 T03800176  RH  030%=      5-min Rain = 0
KRO1 130008Z 13015KT 38/18 A2981 RMK A01 T03800177  RH  031%=      5-min Rain = 0
KRO1 130009Z 13016KT 38/17 A2981 RMK A01 T03800174  RH  030%=      5-min Rain = 0
KRO1 130010Z 13013KT 38/18 A2981 RMK A01 T03800176  RH  030%=      5-min Rain = 0
KRO1 130011Z 13015KT 38/18 A2981 RMK A01 T03790176  RH  030%=      5-min Rain = 0
KRO1 130012Z 13012KT 38/18 A2981 RMK A01 T03780175  RH  031%=      5-min Rain = 0
KRO1 130013Z 13015KT 38/18 A2981 RMK A01 T03780177  RH  031%=      5-min Rain = 0
KRO1 130014Z 13013KT 38/18 A2981 RMK A01 T03780175  RH  031%=      5-min Rain = 0
KRO1 130015Z 13014G19KT 38/18 A2981 RMK A01 T03780176  RH  031%=      5-min Rain = 0
KRO1 130016Z 13014G19KT 38/17 A2981 RMK A01 T03780174  RH  030%=      5-min Rain = 0
KRO1 130017Z 13014KT 38/17 A2981 RMK A01 T03770174  RH  030%=      5-min Rain = 0
KRO1 130018Z 13013KT 38/18 A2981 RMK A01 T03770175  RH  031%=      5-min Rain = 0
KRO1 130019Z 13013KT 38/17 A2981 RMK A01 T03760173  RH  030%=      5-min Rain = 0
KRO1 130020Z 13010KT 38/18 A2981 RMK A01 T03760176  RH  031%=      5-min Rain = 0
KRO1 130021Z 13012KT 38/18 A2981 RMK A01 T03760176  RH  031%=      5-min Rain = 0
KRO1 130022Z 13011KT 38/18 A2981 RMK A01 T03750176  RH  031%=      5-min Rain = 0
KRO1 130023Z 14012KT 37/18 A2981 RMK A01 T03740175  RH  031%=      5-min Rain = 0
KRO1 130024Z 13015G20KT 37/17 A2981 RMK A01 T03740174  RH  031%=      5-min Rain = 0
KRO1 130025Z 13015KT 37/17 A2981 RMK A01 T03740172  RH  031%=      5-min Rain = 0
KRO1 130026Z 13015KT 37/17 A2981 RMK A01 T03740172  RH  030%=      5-min Rain = 0
KRO1 130027Z 13016KT 38/17 A2981 RMK A01 T03750172  RH  030%=      5-min Rain = 0
KRO1 130028Z 13016KT 38/17 A2981 RMK A01 T03750171  RH  030%=      5-min Rain = 0
KRO1 130029Z 13013KT 38/17 A2981 RMK A01 T03750171  RH  030%=      5-min Rain = 0
KRO1 130030Z 14012KT 38/17 A2981 RMK A01 T03750173  RH  031%=      5-min Rain = 0
KRO1 130031Z 14016KT 38/17 A2981 RMK A01 T03750172  RH  030%=      5-min Rain = 0
KRO1 130032Z 14013KT 38/17 A2981 RMK A01 T03750171  RH  030%=      5-min Rain = 0
KRO1 130033Z 13012KT 38/17 A2981 RMK A01 T03750173  RH  031%=      5-min Rain = 0
KRO1 130034Z 13014KT 37/17 A2981 RMK A01 T03740172  RH  031%=      5-min Rain = 0
KRO1 130035Z 14014KT 37/17 A2981 RMK A01 T03740172  RH  031%=      5-min Rain = 0
KRO1 130036Z 14015KT 37/17 A2981 RMK A01 T03740171  RH  030%=      5-min Rain = 0
KRO1 130037Z 14014KT 37/17 A2981 RMK A01 T03740170  RH  030%=      5-min Rain = 0
KRO1 130038Z 14012KT 37/17 A2981 RMK A01 T03730171  RH  030%=      5-min Rain = 0
KRO1 130039Z 14011KT 37/17 A2981 RMK A01 T03730172  RH  031%=      5-min Rain = 0
KRO1 130040Z 13010KT 37/17 A2981 RMK A01 T03720173  RH  031%=      5-min Rain = 0
KRO1 130041Z 13010KT 37/17 A2981 RMK A01 T03710174  RH  031%=      5-min Rain = 0
KRO1 130042Z 13012KT 37/17 A2981 RMK A01 T03700173  RH  031%=      5-min Rain = 0
KRO1 130043Z 14013KT 37/17 A2981 RMK A01 T03700171  RH  031%=      5-min Rain = 0
KRO1 130044Z 14014KT 37/17 A2981 RMK A01 T03700170  RH  031%=      5-min Rain = 0
KRO1 130045Z 13013KT 37/17 A2981 RMK A01 T03700170  RH  031%=      5-min Rain = 0
KRO1 130046Z 14012KT 37/17 A2981 RMK A01 T03700170  RH  031%=      5-min Rain = 0
KRO1 130047Z 14013KT 37/17 A2981 RMK A01 T03700169  RH  031%=      5-min Rain = 0
KRO1 130048Z 14014KT 37/17 A2981 RMK A01 T03700168  RH  030%=      5-min Rain = 0
KRO1 130049Z 14013KT 37/17 A2981 RMK A01 T03700168  RH  030%=      5-min Rain = 0
KRO1 130050Z 14012KT 37/17 A2981 RMK A01 T03700168  RH  030%=      5-min Rain = 0
KRO1 130051Z 13011KT 37/17 A2982 RMK A01 T03700170  RH  031%=      5-min Rain = 0
KRO1 130052Z 13010KT 37/17 A2982 RMK A01 T03690172  RH  031%=      5-min Rain = 0
KRO1 130053Z 13013G18KT 37/17 A2982 RMK A01 T03670171  RH  032%=      5-min Rain = 0
KRO1 130054Z 13014KT 37/17 A2982 RMK A01 T03660168  RH  031%=      5-min Rain = 0
KRO1 130055Z 13014KT 37/17 A2982 RMK A01 T03660167  RH  031%=      5-min Rain = 0
KRO1 130056Z 13015KT 37/17 A2982 RMK A01 T03670167  RH  031%=      5-min Rain = 0
KRO1 130057Z 13013KT 37/17 A2982 RMK A01 T03670167  RH  031%=      5-min Rain = 0
KRO1 130058Z 13014KT 37/17 A2982 RMK A01 T03670168  RH  031%=      5-min Rain = 0
KRO1 130059Z 12013KT 37/17 A2982 RMK A01 T03670168  RH  031%=      5-min Rain = 0
KRO1 130100Z 13012KT 37/17 A2982 RMK A01 T03660168  RH  031%=      5-min Rain = 0
KRO1 130101Z 13012KT 37/17 A2982 RMK A01 T03660169  RH  031%=      5-min Rain = 0
KRO1 130102Z 13012KT 37/17 A2982 RMK A01 T03650168  RH  031%=      5-min Rain = 0
KRO1 130103Z 12012KT 37/17 A2982 RMK A01 T03650169  RH  031%=      5-min Rain = 0
KRO1 130104Z 13012KT 36/17 A2982 RMK A01 T03640168  RH  031%=      5-min Rain = 0
KRO1 130105Z 13013KT 36/17 A2982 RMK A01 T03640167  RH  031%=      5-min Rain = 0
KRO1 130106Z 12011KT 36/17 A2982 RMK A01 T03640168  RH  032%=      5-min Rain = 0
KRO1 130107Z 14012KT 36/17 A2982 RMK A01 T03630169  RH  032%=      5-min Rain = 0
KRO1 130108Z 14015KT 36/17 A2982 RMK A01 T03630168  RH  032%=      5-min Rain = 0
KRO1 130109Z 13012KT 36/17 A2982 RMK A01 T03630167  RH  032%=      5-min Rain = 0
KRO1 130110Z 13013KT 36/17 A2982 RMK A01 T03630168  RH  032%=      5-min Rain = 0
KRO1 130111Z 13012KT 36/17 A2982 RMK A01 T03620168  RH  032%=      5-min Rain = 0
KRO1 130112Z 13011KT 36/17 A2982 RMK A01 T03620168  RH  032%=      5-min Rain = 0
KRO1 130113Z 13013KT 36/17 A2982 RMK A01 T03610167  RH  032%=      5-min Rain = 0
KRO1 130114Z 13014KT 36/17 A2982 RMK A01 T03610167  RH  032%=      5-min Rain = 0
KRO1 130115Z 13012KT 36/17 A2982 RMK A01 T03610166  RH  032%=      5-min Rain = 0
KRO1 130116Z 13012KT 36/17 A2982 RMK A01 T03610167  RH  032%=      5-min Rain = 0
KRO1 130117Z 13012KT 36/17 A2982 RMK A01 T03610168  RH  032%=      5-min Rain = 0
KRO1 130118Z 13011KT 36/17 A2982 RMK A01 T03600167  RH  032%=      5-min Rain = 0
KRO1 130119Z 13011KT 36/17 A2982 RMK A01 T03590168  RH  032%=      5-min Rain = 0
KRO1 130120Z 13012KT 36/17 A2982 RMK A01 T03580168  RH  033%=      5-min Rain = 0
KRO1 130121Z 13013KT 36/17 A2982 RMK A01 T03570167  RH  032%=      5-min Rain = 0
KRO1 130122Z 13012KT 36/17 A2982 RMK A01 T03580167  RH  032%=      5-min Rain = 0
KRO1 130123Z 13013KT 36/17 A2982 RMK A01 T03580167  RH  032%=      5-min Rain = 0
KRO1 130124Z 13013KT 36/17 A2982 RMK A01 T03580167  RH  032%=      5-min Rain = 0
KRO1 130125Z 13013KT 36/17 A2982 RMK A01 T03580166  RH  032%=      5-min Rain = 0
KRO1 130126Z 13014KT 36/17 A2982 RMK A01 T03580166  RH  032%=      5-min Rain = 0
KRO1 130127Z 13014KT 36/17 A2982 RMK A01 T03580165  RH  032%=      5-min Rain = 0
KRO1 130128Z 13013KT 36/17 A2982 RMK A01 T03580165  RH  032%=      5-min Rain = 0
KRO1 130129Z 13012G17KT 36/17 A2982 RMK A01 T03580165  RH  032%=      5-min Rain = 0
KRO1 130130Z 13012KT 36/17 A2982 RMK A01 T03580165  RH  032%=      5-min Rain = 0
KRO1 130131Z 13014KT 36/16 A2982 RMK A01 T03570164  RH  032%=      5-min Rain = 0
KRO1 130132Z 13013KT 36/16 A2982 RMK A01 T03570164  RH  032%=      5-min Rain = 0
KRO1 130133Z 13014KT 36/17 A2982 RMK A01 T03570165  RH  032%=      5-min Rain = 0
KRO1 130134Z 13013KT 36/16 A2982 RMK A01 T03570164  RH  032%=      5-min Rain = 0
KRO1 130135Z 13014KT 36/16 A2982 RMK A01 T03560164  RH  032%=      5-min Rain = 0
KRO1 130136Z 13013KT 36/16 A2982 RMK A01 T03560164  RH  032%=      5-min Rain = 0
KRO1 130137Z 13013KT 36/16 A2982 RMK A01 T03560164  RH  032%=      5-min Rain = 0
KRO1 130138Z 13014KT 36/16 A2982 RMK A01 T03560163  RH  032%=      5-min Rain = 0
KRO1 130139Z 13014KT 36/16 A2983 RMK A01 T03560163  RH  032%=      5-min Rain = 0
KRO1 130140Z 13013KT 36/16 A2983 RMK A01 T03560163  RH  032%=      5-min Rain = 0
KRO1 130141Z 13011KT 36/16 A2983 RMK A01 T03550163  RH  032%=      5-min Rain = 0
KRO1 130142Z 13012KT 35/16 A2983 RMK A01 T03540163  RH  032%=      5-min Rain = 0
KRO1 130143Z 13012KT 35/16 A2983 RMK A01 T03540163  RH  032%=      5-min Rain = 0
KRO1 130144Z 13011KT 35/16 A2983 RMK A01 T03530163  RH  032%=      5-min Rain = 0
KRO1 130145Z 13011KT 35/16 A2983 RMK A01 T03520163  RH  033%=      5-min Rain = 0
KRO1 130146Z 13011KT 35/16 A2983 RMK A01 T03520164  RH  033%=      5-min Rain = 0
KRO1 130147Z 13011KT 35/16 A2983 RMK A01 T03510164  RH  033%=      5-min Rain = 0
KRO1 130148Z 13012KT 35/16 A2983 RMK A01 T03510163  RH  033%=      5-min Rain = 0
KRO1 130149Z 13011KT 35/16 A2983 RMK A01 T03510163  RH  033%=      5-min Rain = 0
KRO1 130150Z 13012KT 35/16 A2983 RMK A01 T03510163  RH  033%=      5-min Rain = 0
KRO1 130151Z 13010KT 35/16 A2983 RMK A01 T03510163  RH  033%=      5-min Rain = 0
KRO1 130152Z 13011KT 35/16 A2983 RMK A01 T03500163  RH  033%=      5-min Rain = 0
KRO1 130153Z 13011KT 35/16 A2983 RMK A01 T03490163  RH  033%=      5-min Rain = 0
KRO1 130154Z 12013KT 35/16 A2983 RMK A01 T03500163  RH  033%=      5-min Rain = 0
KRO1 130155Z 13011KT 35/16 A2983 RMK A01 T03490162  RH  033%=      5-min Rain = 0
KRO1 130156Z 13011KT 35/16 A2983 RMK A01 T03490162  RH  033%=      5-min Rain = 0
KRO1 130157Z 13010KT 35/16 A2983 RMK A01 T03490162  RH  033%=      5-min Rain = 0
KRO1 130158Z 13010KT 35/16 A2983 RMK A01 T03490162  RH  033%=      5-min Rain = 0
KRO1 130159Z 13012KT 35/16 A2983 RMK A01 T03480162  RH  033%=      5-min Rain = 0
KRO1 130200Z 13012KT 35/16 A2983 RMK A01 T03480161  RH  033%=      5-min Rain = 0
KRO1 130201Z 13012KT 35/16 A2983 RMK A01 T03480161  RH  033%=      5-min Rain = 0
KRO1 130202Z 13011KT 35/16 A2983 RMK A01 T03480161  RH  033%=      5-min Rain = 0
KRO1 130203Z 13011KT 35/16 A2983 RMK A01 T03480161  RH  033%=      5-min Rain = 0
KRO1 130204Z 13010KT 35/16 A2984 RMK A01 T03480161  RH  033%=      5-min Rain = 0
KRO1 130205Z 13010KT 35/16 A2984 RMK A01 T03470161  RH  033%=      5-min Rain = 0
KRO1 130206Z 13010KT 35/16 A2984 RMK A01 T03460161  RH  033%=      5-min Rain = 0
KRO1 130207Z 13011KT 35/16 A2984 RMK A01 T03460161  RH  033%=      5-min Rain = 0
KRO1 130208Z 13011KT 35/16 A2984 RMK A01 T03450160  RH  033%=      5-min Rain = 0
KRO1 130209Z 13011KT 35/16 A2984 RMK A01 T03450160  RH  033%=      5-min Rain = 0
KRO1 130210Z 13011KT 35/16 A2984 RMK A01 T03450160  RH  033%=      5-min Rain = 0
KRO1 130211Z 13012KT 35/16 A2984 RMK A01 T03450160  RH  033%=      5-min Rain = 0
KRO1 130212Z 13010KT 35/16 A2984 RMK A01 T03450160  RH  033%=      5-min Rain = 0
KRO1 130213Z 13010KT 35/16 A2984 RMK A01 T03450160  RH  033%=      5-min Rain = 0
KRO1 130214Z 13011KT 34/16 A2984 RMK A01 T03440159  RH  033%=      5-min Rain = 0
KRO1 130215Z 13011KT 34/16 A2984 RMK A01 T03440159  RH  033%=      5-min Rain = 0
KRO1 130216Z 13012KT 34/16 A2984 RMK A01 T03440158  RH  033%=      5-min Rain = 0
KRO1 130217Z 13012KT 35/16 A2984 RMK A01 T03450158  RH  033%=      5-min Rain = 0
KRO1 130218Z 13012KT 35/16 A2984 RMK A01 T03450158  RH  033%=      5-min Rain = 0
KRO1 130219Z 13012KT 35/16 A2984 RMK A01 T03450158  RH  033%=      5-min Rain = 0
KRO1 130220Z 13011KT 35/16 A2984 RMK A01 T03450158  RH  033%=      5-min Rain = 0
KRO1 130221Z 13012KT 35/16 A2984 RMK A01 T03450158  RH  033%=      5-min Rain = 0
KRO1 130222Z 13010KT 35/16 A2984 RMK A01 T03450157  RH  033%=      5-min Rain = 0
KRO1 130223Z 13011KT 34/16 A2984 RMK A01 T03440158  RH  033%=      5-min Rain = 0
KRO1 130224Z 13010KT 34/16 A2984 RMK A01 T03440157  RH  033%=      5-min Rain = 0
KRO1 130225Z 13011KT 34/16 A2984 RMK A01 T03430157  RH  033%=      5-min Rain = 0
KRO1 130226Z 13011KT 34/16 A2984 RMK A01 T03430157  RH  033%=      5-min Rain = 0
KRO1 130227Z 13011KT 34/16 A2984 RMK A01 T03430157  RH  033%=      5-min Rain = 0
KRO1 130228Z 13011KT 34/16 A2984 RMK A01 T03420156  RH  033%=      5-min Rain = 0
KRO1 130229Z 13010KT 34/16 A2984 RMK A01 T03430156  RH  033%=      5-min Rain = 0
KRO1 130230Z 13011KT 34/16 A2984 RMK A01 T03430157  RH  033%=      5-min Rain = 0
KRO1 130231Z 13011KT 34/16 A2984 RMK A01 T03420156  RH  033%=      5-min Rain = 0
KRO1 130232Z 13011KT 34/16 A2984 RMK A01 T03420156  RH  033%=      5-min Rain = 0
KRO1 130233Z 13011KT 34/16 A2984 RMK A01 T03410156  RH  033%=      5-min Rain = 0
KRO1 130234Z 13011KT 34/16 A2984 RMK A01 T03410156  RH  033%=      5-min Rain = 0
KRO1 130235Z 13011KT 34/16 A2984 RMK A01 T03410156  RH  033%=      5-min Rain = 0
KRO1 130236Z 13011KT 34/16 A2984 RMK A01 T03410156  RH  033%=      5-min Rain = 0
KRO1 130237Z 13011KT 34/16 A2984 RMK A01 T03410156  RH  033%=      5-min Rain = 0
KRO1 130238Z 13011KT 34/16 A2984 RMK A01 T03410155  RH  033%=      5-min Rain = 0
KRO1 130239Z 13010KT 34/16 A2984 RMK A01 T03410156  RH  033%=      5-min Rain = 0
KRO1 130240Z 13010KT 34/16 A2984 RMK A01 T03410156  RH  033%=      5-min Rain = 0
KRO1 130241Z 13012KT 34/16 A2984 RMK A01 T03400155  RH  033%=      5-min Rain = 0
KRO1 130242Z 13011KT 34/16 A2984 RMK A01 T03400156  RH  033%=      5-min Rain = 0
KRO1 130243Z 13010KT 34/16 A2984 RMK A01 T03400155  RH  033%=      5-min Rain = 0
KRO1 130244Z 13010KT 34/16 A2984 RMK A01 T03400155  RH  033%=      5-min Rain = 0
KRO1 130245Z 13010KT 34/16 A2984 RMK A01 T03390155  RH  033%=      5-min Rain = 0
KRO1 130246Z 12009KT 34/16 A2984 RMK A01 T03380155  RH  033%=      5-min Rain = 0
KRO1 130247Z 13010KT 34/16 A2984 RMK A01 T03380155  RH  034%=      5-min Rain = 0
KRO1 130248Z 13010KT 34/16 A2984 RMK A01 T03380156  RH  034%=      5-min Rain = 0
KRO1 130249Z 13009KT 34/16 A2984 RMK A01 T03370156  RH  034%=      5-min Rain = 0
KRO1 130250Z 13010KT 34/16 A2984 RMK A01 T03360156  RH  034%=      5-min Rain = 0
KRO1 130251Z 13009KT 34/16 A2984 RMK A01 T03350156  RH  034%=      5-min Rain = 0
KRO1 130252Z 13009KT 33/16 A2984 RMK A01 T03340156  RH  034%=      5-min Rain = 0
KRO1 130253Z 13010KT 33/16 A2984 RMK A01 T03340155  RH  034%=      5-min Rain = 0
KRO1 130254Z 13010KT 33/16 A2984 RMK A01 T03340155  RH  034%=      5-min Rain = 0
KRO1 130255Z 13010KT 33/16 A2984 RMK A01 T03330155  RH  034%=      5-min Rain = 0
KRO1 130256Z 13010KT 33/16 A2984 RMK A01 T03340155  RH  034%=      5-min Rain = 0
KRO1 130257Z 12010KT 33/16 A2984 RMK A01 T03340155  RH  034%=      5-min Rain = 0
KRO1 130258Z 13009KT 33/16 A2984 RMK A01 T03330155  RH  034%=      5-min Rain = 0
KRO1 130259Z 13009KT 33/16 A2984 RMK A01 T03330155  RH  034%=      5-min Rain = 0
KRO1 130300Z 13010KT 33/16 A2984 RMK A01 T03330155  RH  034%=      5-min Rain = 0
KRO1 130301Z 13009KT 33/15 A2984 RMK A01 T03330154  RH  034%=      5-min Rain = 0
KRO1 130302Z 13009KT 33/15 A2984 RMK A01 T03320154  RH  034%=      5-min Rain = 0
KRO1 130303Z 13010KT 33/16 A2984 RMK A01 T03320155  RH  034%=      5-min Rain = 0
KRO1 130304Z 13008KT 33/16 A2984 RMK A01 T03320155  RH  034%=      5-min Rain = 0
KRO1 130305Z 13009KT 33/16 A2984 RMK A01 T03320155  RH  034%=      5-min Rain = 0
KRO1 130306Z 13009KT 33/15 A2985 RMK A01 T03310154  RH  034%=      5-min Rain = 0
KRO1 130307Z 13011KT 33/15 A2985 RMK A01 T03310154  RH  035%=      5-min Rain = 0
KRO1 130308Z 13010KT 33/15 A2985 RMK A01 T03310154  RH  034%=      5-min Rain = 0
KRO1 130309Z 13010KT 33/15 A2985 RMK A01 T03320154  RH  034%=      5-min Rain = 0
KRO1 130310Z 13010KT 33/15 A2985 RMK A01 T03320154  RH  034%=      5-min Rain = 0
KRO1 130311Z 13010KT 33/15 A2985 RMK A01 T03310154  RH  034%=      5-min Rain = 0
KRO1 130312Z 13010KT 33/15 A2985 RMK A01 T03310154  RH  035%=      5-min Rain = 0
KRO1 130313Z 13010KT 33/15 A2985 RMK A01 T03310154  RH  035%=      5-min Rain = 0
KRO1 130314Z 13010KT 33/16 A2985 RMK A01 T03310155  RH  035%=      5-min Rain = 0
KRO1 130315Z 13009KT 33/15 A2985 RMK A01 T03300154  RH  035%=      5-min Rain = 0
KRO1 130316Z 13011KT 33/16 A2985 RMK A01 T03300155  RH  035%=      5-min Rain = 0
KRO1 130317Z 13009KT 33/15 A2985 RMK A01 T03300154  RH  035%=      5-min Rain = 0
KRO1 130318Z 13010KT 33/15 A2985 RMK A01 T03290154  RH  035%=      5-min Rain = 0
KRO1 130319Z 13010KT 33/16 A2985 RMK A01 T03290155  RH  035%=      5-min Rain = 0
KRO1 130320Z 13010KT 33/15 A2985 RMK A01 T03290154  RH  035%=      5-min Rain = 0
KRO1 130321Z 13010KT 33/15 A2985 RMK A01 T03300154  RH  035%=      5-min Rain = 0
KRO1 130322Z 13010KT 33/15 A2985 RMK A01 T03290154  RH  035%=      5-min Rain = 0
KRO1 130323Z 13010KT 33/15 A2985 RMK A01 T03290154  RH  035%=      5-min Rain = 0
KRO1 130324Z 13011KT 33/15 A2985 RMK A01 T03290154  RH  035%=      5-min Rain = 0
KRO1 130325Z 13011KT 33/15 A2985 RMK A01 T03290154  RH  035%=      5-min Rain = 0
KRO1 130326Z 13009KT 33/15 A2985 RMK A01 T03290154  RH  035%=      5-min Rain = 0
KRO1 130327Z 13010KT 33/15 A2985 RMK A01 T03290154  RH  035%=      5-min Rain = 0
KRO1 130328Z 13010KT 33/15 A2985 RMK A01 T03280154  RH  035%=      5-min Rain = 0
KRO1 130329Z 13011KT 33/15 A2985 RMK A01 T03280154  RH  035%=      5-min Rain = 0
KRO1 130330Z 13010KT 33/15 A2985 RMK A01 T03280153  RH  035%=      5-min Rain = 0
KRO1 130331Z 13011KT 33/15 A2985 RMK A01 T03280154  RH  035%=      5-min Rain = 0
KRO1 130332Z 13010KT 33/15 A2985 RMK A01 T03280153  RH  035%=      5-min Rain = 0
KRO1 130333Z 13009KT 33/15 A2985 RMK A01 T03280153  RH  035%=      5-min Rain = 0
KRO1 130334Z 13009KT 33/15 A2985 RMK A01 T03280154  RH  035%=      5-min Rain = 0
KRO1 130335Z 13010KT 33/15 A2985 RMK A01 T03270153  RH  035%=      5-min Rain = 0
KRO1 130336Z 13009KT 33/15 A2985 RMK A01 T03270153  RH  035%=      5-min Rain = 0
KRO1 130337Z 13010KT 33/15 A2985 RMK A01 T03260153  RH  035%=      5-min Rain = 0
KRO1 130338Z 13010KT 33/15 A2985 RMK A01 T03270153  RH  035%=      5-min Rain = 0
KRO1 130339Z 13010KT 33/15 A2985 RMK A01 T03270153  RH  035%=      5-min Rain = 0
KRO1 130340Z 13010KT 33/15 A2985 RMK A01 T03270153  RH  035%=      5-min Rain = 0
KRO1 130341Z 13010KT 33/15 A2985 RMK A01 T03260153  RH  035%=      5-min Rain = 0
KRO1 130342Z 13010KT 33/15 A2985 RMK A01 T03260153  RH  035%=      5-min Rain = 0
KRO1 130343Z 13010KT 33/15 A2985 RMK A01 T03260153  RH  035%=      5-min Rain = 0
KRO1 130344Z 14010KT 33/15 A2985 RMK A01 T03260153  RH  035%=      5-min Rain = 0
KRO1 130345Z 14010KT 33/15 A2985 RMK A01 T03250153  RH  035%=      5-min Rain = 0
KRO1 130346Z 13009KT 33/15 A2985 RMK A01 T03250153  RH  035%=      5-min Rain = 0
KRO1 130347Z 14009KT 33/15 A2985 RMK A01 T03250153  RH  036%=      5-min Rain = 0
KRO1 130348Z 14010KT 32/15 A2985 RMK A01 T03240153  RH  036%=      5-min Rain = 0
KRO1 130349Z 14009KT 32/15 A2985 RMK A01 T03240153  RH  036%=      5-min Rain = 0
KRO1 130350Z 14010KT 32/15 A2985 RMK A01 T03230153  RH  036%=      5-min Rain = 0
KRO1 130351Z 14010KT 32/15 A2985 RMK A01 T03230152  RH  036%=      5-min Rain = 0
KRO1 130352Z 14009KT 32/15 A2985 RMK A01 T03230152  RH  036%=      5-min Rain = 0
KRO1 130353Z 13008KT 32/15 A2985 RMK A01 T03230153  RH  036%=      5-min Rain = 0
KRO1 130354Z 14009KT 32/15 A2985 RMK A01 T03230153  RH  036%=      5-min Rain = 0
KRO1 130355Z 13008KT 32/15 A2985 RMK A01 T03220153  RH  036%=      5-min Rain = 0
KRO1 130356Z 13009KT 32/15 A2985 RMK A01 T03210153  RH  036%=      5-min Rain = 0
KRO1 130357Z 14009KT 32/15 A2985 RMK A01 T03210153  RH  036%=      5-min Rain = 0
KRO1 130358Z 14008KT 32/15 A2985 RMK A01 T03210153  RH  036%=      5-min Rain = 0
KRO1 130359Z 14008KT 32/15 A2986 RMK A01 T03200153  RH  037%=      5-min Rain = 0
KRO1 130400Z 14008KT 32/15 A2986 RMK A01 T03200153  RH  037%=      5-min Rain = 0
KRO1 130401Z 14008KT 32/15 A2986 RMK A01 T03200153  RH  037%=      5-min Rain = 0
KRO1 130402Z 14008KT 32/15 A2986 RMK A01 T03190153  RH  037%=      5-min Rain = 0
KRO1 130403Z 14008KT 32/15 A2986 RMK A01 T03180153  RH  037%=      5-min Rain = 0
KRO1 130404Z 14008KT 32/15 A2986 RMK A01 T03180153  RH  037%=      5-min Rain = 0
KRO1 130405Z 14008KT 32/15 A2986 RMK A01 T03180153  RH  037%=      5-min Rain = 0
KRO1 130406Z 14008KT 32/15 A2986 RMK A01 T03170153  RH  037%=      5-min Rain = 0
KRO1 130407Z 14008KT 32/15 A2986 RMK A01 T03170153  RH  037%=      5-min Rain = 0
KRO1 130408Z 14008KT 32/15 A2986 RMK A01 T03170154  RH  037%=      5-min Rain = 0
KRO1 130409Z 14008KT 32/15 A2986 RMK A01 T03160153  RH  037%=      5-min Rain = 0
KRO1 130410Z 14009KT 32/15 A2986 RMK A01 T03160153  RH  037%=      5-min Rain = 0
KRO1 130411Z 14009KT 32/15 A2986 RMK A01 T03160153  RH  037%=      5-min Rain = 0
KRO1 130412Z 14009KT 32/15 A2986 RMK A01 T03160152  RH  037%=      5-min Rain = 0
KRO1 130413Z 14010KT 32/15 A2986 RMK A01 T03170152  RH  037%=      5-min Rain = 0
KRO1 130414Z 14009KT 32/15 A2986 RMK A01 T03180152  RH  037%=      5-min Rain = 0
KRO1 130415Z 14009KT 32/15 A2986 RMK A01 T03190152  RH  036%=      5-min Rain = 0
KRO1 130416Z 14009KT 32/15 A2986 RMK A01 T03190152  RH  036%=      5-min Rain = 0
KRO1 130417Z 14010KT 32/15 A2986 RMK A01 T03200152  RH  036%=      5-min Rain = 0
KRO1 130418Z 14008KT 32/15 A2986 RMK A01 T03200151  RH  036%=      5-min Rain = 0
KRO1 130419Z 14008KT 32/15 A2986 RMK A01 T03200152  RH  036%=      5-min Rain = 0
KRO1 130420Z 14009KT 32/15 A2986 RMK A01 T03200152  RH  036%=      5-min Rain = 0
KRO1 130421Z 14009KT 32/15 A2986 RMK A01 T03200152  RH  036%=      5-min Rain = 0
KRO1 130422Z 14009KT 32/15 A2986 RMK A01 T03200152  RH  036%=      5-min Rain = 0
KRO1 130423Z 13009KT 32/15 A2986 RMK A01 T03200151  RH  036%=      5-min Rain = 0
KRO1 130424Z 14009KT 32/15 A2986 RMK A01 T03200151  RH  036%=      5-min Rain = 0
KRO1 130425Z 13009KT 32/15 A2986 RMK A01 T03200151  RH  036%=      5-min Rain = 0
KRO1 130426Z 14009KT 32/15 A2987 RMK A01 T03200152  RH  036%=      5-min Rain = 0
KRO1 130427Z 14008KT 32/15 A2987 RMK A01 T03200151  RH  036%=      5-min Rain = 0
KRO1 130428Z 14008KT 32/15 A2987 RMK A01 T03190152  RH  036%=      5-min Rain = 0
KRO1 130429Z 14009KT 32/15 A2987 RMK A01 T03190152  RH  036%=      5-min Rain = 0
KRO1 130430Z 14009KT 32/15 A2986 RMK A01 T03180152  RH  036%=      5-min Rain = 0
KRO1 130431Z 14008KT 32/15 A2986 RMK A01 T03180152  RH  037%=      5-min Rain = 0
KRO1 130432Z 14008KT 32/15 A2986 RMK A01 T03170151  RH  037%=      5-min Rain = 0
KRO1 130433Z 14008KT 32/15 A2986 RMK A01 T03170152  RH  037%=      5-min Rain = 0
KRO1 130434Z 14008KT 32/15 A2986 RMK A01 T03170152  RH  037%=      5-min Rain = 0
KRO1 130435Z 14008KT 32/15 A2986 RMK A01 T03160152  RH  037%=      5-min Rain = 0
KRO1 130436Z 13008KT 32/15 A2986 RMK A01 T03150152  RH  037%=      5-min Rain = 0
KRO1 130437Z 13008KT 32/15 A2987 RMK A01 T03150152  RH  037%=      5-min Rain = 0
KRO1 130438Z 13008KT 31/15 A2986 RMK A01 T03140152  RH  037%=      5-min Rain = 0
KRO1 130439Z 13008KT 31/15 A2986 RMK A01 T03140152  RH  038%=      5-min Rain = 0
KRO1 130440Z 13007KT 31/15 A2986 RMK A01 T03130152  RH  038%=      5-min Rain = 0
KRO1 130441Z 13008KT 31/15 A2986 RMK A01 T03130152  RH  038%=      5-min Rain = 0
KRO1 130442Z 13008KT 31/15 A2986 RMK A01 T03120152  RH  038%=      5-min Rain = 0
KRO1 130443Z 13008KT 31/15 A2987 RMK A01 T03120152  RH  038%=      5-min Rain = 0
KRO1 130444Z 14007KT 31/15 A2987 RMK A01 T03130152  RH  038%=      5-min Rain = 0
KRO1 130445Z 14007KT 31/15 A2987 RMK A01 T03120152  RH  038%=      5-min Rain = 0
KRO1 130446Z 14007KT 31/15 A2987 RMK A01 T03110152  RH  038%=      5-min Rain = 0
KRO1 130447Z 14008KT 31/15 A2987 RMK A01 T03100152  RH  038%=      5-min Rain = 0
KRO1 130448Z 14007KT 31/15 A2987 RMK A01 T03090152  RH  038%=      5-min Rain = 0
KRO1 130449Z 14008KT 31/15 A2987 RMK A01 T03090152  RH  039%=      5-min Rain = 0
KRO1 130450Z 14008KT 31/15 A2987 RMK A01 T03090151  RH  039%=      5-min Rain = 0
KRO1 130451Z 14008KT 31/15 A2987 RMK A01 T03080151  RH  039%=      5-min Rain = 0
KRO1 130452Z 14007KT 31/15 A2987 RMK A01 T03080151  RH  039%=      5-min Rain = 0
KRO1 130453Z 14008KT 31/15 A2987 RMK A01 T03080151  RH  039%=      5-min Rain = 0
KRO1 130454Z 14008KT 31/15 A2987 RMK A01 T03070151  RH  039%=      5-min Rain = 0
KRO1 130455Z 14008KT 31/15 A2987 RMK A01 T03070151  RH  039%=      5-min Rain = 0
KRO1 130456Z 14008KT 31/15 A2987 RMK A01 T03070151  RH  039%=      5-min Rain = 0
KRO1 130457Z 14008KT 31/15 A2987 RMK A01 T03060150  RH  039%=      5-min Rain = 0
KRO1 130458Z 14008KT 31/15 A2987 RMK A01 T03070150  RH  039%=      5-min Rain = 0
KRO1 130459Z 14008KT 31/15 A2987 RMK A01 T03080150  RH  039%=      5-min Rain = 0

Page generated in 0.1198 seconds.